BOX82R KMCO-GOBD
Flight info
| Callsign | BOX82R |
|---|---|
| Flight time | 6h 58m |
| Altitude | 39000 |
| Route | MZULO3 LENDS DCT SNAGY/M085F390 DCT GALVN DCT AMENO DCT 27N050W 26N040W 24N035W DCT ULTEM/N0490F390 UR976 NARAT DCT AMROD AMROD1D |
| Aircraft | B77L/H-SDE1E2E3FGHIJ2J3J4J5M1RWXY/LB1D1 |
Departure
| Time | 2026-04-25 11:31 |
|---|---|
| Airport | Orlando International Airport (KMCO) |
Arrival
| Time | 2026-04-25 18:29 |
|---|---|
| Airport | Blaise Diagne International Airport (GOBD) |
| Time | Latitude | Longitude | Altitude | Speed | Heading |
|---|---|---|---|---|---|
| 2026-04-25 10:18 | 28.43132 | -81.33030 | 113 ft | 0 kts | 359° |
| 2026-04-25 10:22 | 28.43132 | -81.33029 | 113 ft | 0 kts | 2° |
| 2026-04-25 11:13 | 28.43152 | -81.33017 | 111 ft | 7 kts | 43° |
| 2026-04-25 11:13 | 28.43138 | -81.32933 | 112 ft | 8 kts | 147° |
| 2026-04-25 11:13 | 28.43052 | -81.32924 | 112 ft | 17 kts | 181° |
| 2026-04-25 11:14 | 28.42948 | -81.32922 | 110 ft | 15 kts | 178° |
| 2026-04-25 11:14 | 28.42845 | -81.32920 | 108 ft | 15 kts | 179° |
| 2026-04-25 11:14 | 28.42759 | -81.32920 | 109 ft | 9 kts | 180° |
| 2026-04-25 11:14 | 28.42742 | -81.32920 | 109 ft | 1 kts | 180° |
| 2026-04-25 11:15 | 28.42731 | -81.32921 | 109 ft | 2 kts | 180° |
| 2026-04-25 11:15 | 28.42695 | -81.32918 | 109 ft | 8 kts | 167° |
| 2026-04-25 11:15 | 28.42653 | -81.32872 | 107 ft | 9 kts | 108° |
| 2026-04-25 11:15 | 28.42651 | -81.32815 | 108 ft | 7 kts | 90° |
| 2026-04-25 11:16 | 28.42651 | -81.32805 | 108 ft | 0 kts | 90° |
| 2026-04-25 11:16 | 28.42651 | -81.32801 | 108 ft | 1 kts | 90° |
| 2026-04-25 11:16 | 28.42651 | -81.32794 | 108 ft | 1 kts | 90° |
| 2026-04-25 11:17 | 28.42651 | -81.32785 | 107 ft | 0 kts | 90° |
| 2026-04-25 11:18 | 28.42651 | -81.32783 | 107 ft | 0 kts | 90° |
| 2026-04-25 11:19 | 28.42651 | -81.32752 | 107 ft | 11 kts | 90° |
| 2026-04-25 11:19 | 28.42627 | -81.32624 | 107 ft | 17 kts | 117° |
| 2026-04-25 11:19 | 28.42566 | -81.32502 | 110 ft | 18 kts | 120° |
| 2026-04-25 11:19 | 28.42506 | -81.32384 | 110 ft | 16 kts | 120° |
| 2026-04-25 11:20 | 28.42457 | -81.32289 | 111 ft | 13 kts | 120° |
| 2026-04-25 11:20 | 28.42412 | -81.32201 | 113 ft | 13 kts | 120° |
| 2026-04-25 11:20 | 28.42369 | -81.32117 | 111 ft | 11 kts | 120° |
| 2026-04-25 11:20 | 28.42348 | -81.32055 | 112 ft | 5 kts | 98° |
| 2026-04-25 11:21 | 28.42348 | -81.32045 | 113 ft | 1 kts | 94° |
| 2026-04-25 11:21 | 28.42346 | -81.32021 | 111 ft | 7 kts | 94° |
| 2026-04-25 11:21 | 28.42346 | -81.31931 | 110 ft | 15 kts | 89° |
| 2026-04-25 11:21 | 28.42347 | -81.31811 | 111 ft | 15 kts | 89° |
| 2026-04-25 11:22 | 28.42348 | -81.31690 | 109 ft | 15 kts | 89° |
| 2026-04-25 11:22 | 28.42348 | -81.31607 | 107 ft | 15 kts | 90° |
| 2026-04-25 11:22 | 28.42350 | -81.31446 | 105 ft | 15 kts | 89° |
| 2026-04-25 11:22 | 28.42351 | -81.31321 | 105 ft | 17 kts | 90° |
| 2026-04-25 11:23 | 28.42342 | -81.31195 | 106 ft | 16 kts | 99° |
| 2026-04-25 11:23 | 28.42323 | -81.31068 | 106 ft | 17 kts | 100° |
| 2026-04-25 11:23 | 28.42318 | -81.30940 | 104 ft | 17 kts | 89° |
| 2026-04-25 11:23 | 28.42328 | -81.30806 | 107 ft | 17 kts | 85° |
| 2026-04-25 11:24 | 28.42338 | -81.30669 | 110 ft | 18 kts | 85° |
| 2026-04-25 11:24 | 28.42347 | -81.30525 | 110 ft | 19 kts | 85° |
| 2026-04-25 11:24 | 28.42358 | -81.30355 | 106 ft | 23 kts | 88° |
| 2026-04-25 11:24 | 28.42361 | -81.30170 | 107 ft | 23 kts | 90° |
| 2026-04-25 11:25 | 28.42361 | -81.29988 | 108 ft | 23 kts | 89° |
| 2026-04-25 11:25 | 28.42363 | -81.29827 | 107 ft | 17 kts | 89° |
| 2026-04-25 11:25 | 28.42364 | -81.29760 | 106 ft | 0 kts | 89° |
| 2026-04-25 11:25 | 28.42366 | -81.29737 | 106 ft | 8 kts | 78° |
| 2026-04-25 11:26 | 28.42437 | -81.29697 | 107 ft | 16 kts | 0° |
| 2026-04-25 11:26 | 28.42569 | -81.29715 | 108 ft | 17 kts | 324° |
| 2026-04-25 11:26 | 28.42670 | -81.29797 | 107 ft | 23 kts | 357° |
| 2026-04-25 11:26 | 28.42841 | -81.29799 | 107 ft | 25 kts | 360° |
| 2026-04-25 11:27 | 28.43025 | -81.29800 | 108 ft | 22 kts | 359° |
| 2026-04-25 11:27 | 28.43183 | -81.29802 | 108 ft | 22 kts | 359° |
| 2026-04-25 11:27 | 28.43330 | -81.29803 | 108 ft | 21 kts | 360° |
| 2026-04-25 11:27 | 28.43418 | -81.29804 | 108 ft | 16 kts | 359° |
| 2026-04-25 11:28 | 28.43486 | -81.29805 | 108 ft | 1 kts | 359° |
| 2026-04-25 11:28 | 28.43499 | -81.29805 | 108 ft | 1 kts | 359° |
| 2026-04-25 11:28 | 28.43515 | -81.29802 | 108 ft | 5 kts | 17° |
| 2026-04-25 11:28 | 28.43547 | -81.29749 | 108 ft | 12 kts | 80° |
| 2026-04-25 11:29 | 28.43551 | -81.29673 | 108 ft | 13 kts | 87° |
| 2026-04-25 11:29 | 28.43533 | -81.29588 | 108 ft | 8 kts | 135° |
| 2026-04-25 11:29 | 28.43469 | -81.29581 | 110 ft | 12 kts | 183° |
| 2026-04-25 11:29 | 28.43341 | -81.29585 | 111 ft | 28 kts | 179° |
| 2026-04-25 11:30 | 28.43041 | -81.29581 | 110 ft | 66 kts | 179° |
| 2026-04-25 11:30 | 28.42357 | -81.29574 | 105 ft | 130 kts | 179° |
| 2026-04-25 11:30 | 28.41266 | -81.29556 | 108 ft | 183 kts | 178° |
| 2026-04-25 11:30 | 28.39934 | -81.29501 | 454 ft | 194 kts | 176° |
| 2026-04-25 11:31 | 28.38556 | -81.29377 | 874 ft | 204 kts | 169° |
| 2026-04-25 11:31 | 28.37251 | -81.28698 | 1204 ft | 212 kts | 147° |
| 2026-04-25 11:31 | 28.35968 | -81.27828 | 1701 ft | 217 kts | 155° |
| 2026-04-25 11:31 | 28.34515 | -81.27107 | 1954 ft | 236 kts | 159° |
| 2026-04-25 11:32 | 28.33113 | -81.26074 | 2297 ft | 247 kts | 136° |
| 2026-04-25 11:32 | 28.31907 | -81.24639 | 2824 ft | 253 kts | 134° |
| 2026-04-25 11:32 | 28.30735 | -81.23167 | 3483 ft | 256 kts | 131° |
| 2026-04-25 11:32 | 28.29676 | -81.21557 | 4058 ft | 257 kts | 114° |
| 2026-04-25 11:33 | 28.29441 | -81.19563 | 4557 ft | 260 kts | 77° |
| 2026-04-25 11:33 | 28.30217 | -81.17733 | 5131 ft | 259 kts | 57° |
| 2026-04-25 11:33 | 28.31174 | -81.15950 | 5546 ft | 270 kts | 59° |
| 2026-04-25 11:33 | 28.32120 | -81.14073 | 6075 ft | 277 kts | 60° |
| 2026-04-25 11:34 | 28.33075 | -81.12157 | 6682 ft | 281 kts | 60° |
| 2026-04-25 11:34 | 28.34038 | -81.10218 | 7319 ft | 284 kts | 59° |
| 2026-04-25 11:34 | 28.35013 | -81.08252 | 7944 ft | 287 kts | 59° |
| 2026-04-25 11:34 | 28.35994 | -81.06269 | 8558 ft | 290 kts | 59° |
| 2026-04-25 11:35 | 28.36988 | -81.04259 | 9150 ft | 294 kts | 59° |
| 2026-04-25 11:35 | 28.37994 | -81.02219 | 9758 ft | 297 kts | 59° |
| 2026-04-25 11:35 | 28.38999 | -81.00180 | 10272 ft | 303 kts | 59° |
| 2026-04-25 11:35 | 28.40061 | -80.98028 | 10464 ft | 322 kts | 59° |
| 2026-04-25 11:36 | 28.41189 | -80.95737 | 10639 ft | 342 kts | 59° |
| 2026-04-25 11:36 | 28.42382 | -80.93312 | 10800 ft | 362 kts | 59° |
| 2026-04-25 11:36 | 28.43643 | -80.90744 | 11080 ft | 378 kts | 59° |
| 2026-04-25 11:36 | 28.44939 | -80.88104 | 11582 ft | 386 kts | 59° |
| 2026-04-25 11:37 | 28.46245 | -80.85409 | 12188 ft | 392 kts | 62° |
| 2026-04-25 11:37 | 28.47310 | -80.82538 | 12848 ft | 396 kts | 70° |
| 2026-04-25 11:37 | 28.48032 | -80.79497 | 13533 ft | 401 kts | 78° |
| 2026-04-25 11:37 | 28.48437 | -80.76342 | 14116 ft | 405 kts | 82° |
| 2026-04-25 11:38 | 28.48773 | -80.73149 | 14637 ft | 410 kts | 82° |
| 2026-04-25 11:38 | 28.49111 | -80.69909 | 15194 ft | 414 kts | 82° |
| 2026-04-25 11:38 | 28.49455 | -80.66645 | 15761 ft | 418 kts | 82° |
| 2026-04-25 11:38 | 28.49810 | -80.63344 | 16286 ft | 422 kts | 81° |
| 2026-04-25 11:39 | 28.50172 | -80.60022 | 16810 ft | 426 kts | 81° |
| 2026-04-25 11:39 | 28.50540 | -80.56662 | 17338 ft | 430 kts | 81° |
| 2026-04-25 11:39 | 28.50753 | -80.54733 | 17646 ft | 433 kts | 81° |
| 2026-04-25 11:39 | 28.51135 | -80.51256 | 18155 ft | 437 kts | 81° |
| 2026-04-25 11:40 | 28.51510 | -80.47848 | 18568 ft | 442 kts | 81° |
| 2026-04-25 11:40 | 28.51896 | -80.44325 | 19050 ft | 445 kts | 81° |
| 2026-04-25 11:40 | 28.52279 | -80.40822 | 19657 ft | 447 kts | 81° |
| 2026-04-25 11:40 | 28.52659 | -80.37332 | 20027 ft | 452 kts | 81° |
| 2026-04-25 11:41 | 28.53046 | -80.33777 | 20497 ft | 455 kts | 81° |
| 2026-04-25 11:41 | 28.53587 | -80.30236 | 21001 ft | 455 kts | 74° |
| 2026-04-25 11:41 | 28.54449 | -80.26770 | 21460 ft | 456 kts | 69° |
| 2026-04-25 11:41 | 28.55629 | -80.23419 | 21895 ft | 457 kts | 64° |
| 2026-04-25 11:42 | 28.56919 | -80.20097 | 22321 ft | 461 kts | 64° |
| 2026-04-25 11:42 | 28.58221 | -80.16746 | 22739 ft | 464 kts | 64° |
| 2026-04-25 11:42 | 28.59522 | -80.13374 | 23216 ft | 466 kts | 64° |
| 2026-04-25 11:42 | 28.60819 | -80.09985 | 23708 ft | 467 kts | 64° |
| 2026-04-25 11:43 | 28.62110 | -80.06587 | 24131 ft | 468 kts | 65° |
| 2026-04-25 11:43 | 28.63406 | -80.03161 | 24520 ft | 471 kts | 65° |
| 2026-04-25 11:43 | 28.64704 | -79.99724 | 24903 ft | 473 kts | 65° |
| 2026-04-25 11:43 | 28.65987 | -79.96321 | 25257 ft | 476 kts | 65° |
| 2026-04-25 11:44 | 28.67293 | -79.92852 | 25643 ft | 478 kts | 65° |
| 2026-04-25 11:44 | 28.68604 | -79.89369 | 26030 ft | 480 kts | 65° |
| 2026-04-25 11:44 | 28.69422 | -79.87195 | 26239 ft | 482 kts | 66° |
| 2026-04-25 11:44 | 28.70745 | -79.83678 | 26518 ft | 485 kts | 65° |
| 2026-04-25 11:45 | 28.72074 | -79.80135 | 26901 ft | 487 kts | 65° |
| 2026-04-25 11:45 | 28.73407 | -79.76583 | 27323 ft | 487 kts | 65° |
| 2026-04-25 11:45 | 28.74741 | -79.73022 | 27686 ft | 489 kts | 65° |
| 2026-04-25 11:45 | 28.76083 | -79.69440 | 28035 ft | 492 kts | 65° |
| 2026-04-25 11:46 | 28.77427 | -79.65847 | 28344 ft | 494 kts | 65° |
| 2026-04-25 11:46 | 28.78778 | -79.62233 | 28675 ft | 496 kts | 65° |
| 2026-04-25 11:46 | 28.80150 | -79.58612 | 28990 ft | 498 kts | 63° |
| 2026-04-25 11:46 | 28.81737 | -79.55107 | 29282 ft | 498 kts | 58° |
| 2026-04-25 11:47 | 28.83606 | -79.51846 | 29558 ft | 498 kts | 52° |
| 2026-04-25 11:47 | 28.85649 | -79.48658 | 29955 ft | 497 kts | 52° |
| 2026-04-25 11:47 | 28.87688 | -79.45484 | 30411 ft | 493 kts | 52° |
| 2026-04-25 11:47 | 28.89707 | -79.42326 | 30799 ft | 491 kts | 52° |
| 2026-04-25 11:48 | 28.91715 | -79.39162 | 31055 ft | 492 kts | 52° |
| 2026-04-25 11:48 | 28.93039 | -79.37064 | 31207 ft | 493 kts | 52° |
| 2026-04-25 11:48 | 28.95040 | -79.33881 | 31480 ft | 493 kts | 52° |
| 2026-04-25 11:48 | 28.97034 | -79.30698 | 31803 ft | 492 kts | 53° |
| 2026-04-25 11:49 | 28.99020 | -79.27521 | 32101 ft | 491 kts | 53° |
| 2026-04-25 11:49 | 29.01004 | -79.24346 | 32369 ft | 490 kts | 53° |
| 2026-04-25 11:49 | 29.02675 | -79.21669 | 32599 ft | 490 kts | 53° |
| 2026-04-25 11:49 | 29.04190 | -79.19242 | 32797 ft | 490 kts | 53° |
| 2026-04-25 11:50 | 29.06171 | -79.16067 | 33066 ft | 489 kts | 53° |
| 2026-04-25 11:50 | 29.08143 | -79.12904 | 33349 ft | 488 kts | 53° |
| 2026-04-25 11:50 | 29.10112 | -79.09746 | 33634 ft | 487 kts | 53° |
| 2026-04-25 11:50 | 29.12072 | -79.06597 | 33924 ft | 485 kts | 53° |
| 2026-04-25 11:51 | 29.14010 | -79.03484 | 34074 ft | 487 kts | 53° |
| 2026-04-25 11:51 | 29.15982 | -79.00313 | 34100 ft | 490 kts | 53° |
| 2026-04-25 11:51 | 29.19948 | -78.93927 | 34297 ft | 493 kts | 53° |
| 2026-04-25 11:52 | 29.21934 | -78.90726 | 34433 ft | 493 kts | 53° |
| 2026-04-25 11:52 | 29.23919 | -78.87522 | 34556 ft | 494 kts | 53° |
| 2026-04-25 11:52 | 29.27904 | -78.81084 | 34732 ft | 496 kts | 53° |
| 2026-04-25 11:53 | 29.31901 | -78.74618 | 34901 ft | 498 kts | 53° |
| 2026-04-25 11:53 | 29.35543 | -78.67897 | 35076 ft | 502 kts | 64° |
| 2026-04-25 11:54 | 29.37685 | -78.60265 | 35218 ft | 507 kts | 79° |
| 2026-04-25 11:55 | 29.39073 | -78.49807 | 35366 ft | 510 kts | 80° |
| 2026-04-25 11:55 | 29.40127 | -78.41760 | 35491 ft | 511 kts | 80° |
| 2026-04-25 11:56 | 29.41225 | -78.33694 | 35603 ft | 512 kts | 79° |
| 2026-04-25 11:56 | 29.42340 | -78.25612 | 35703 ft | 513 kts | 79° |
| 2026-04-25 11:57 | 29.43448 | -78.17557 | 35792 ft | 514 kts | 79° |
| 2026-04-25 11:57 | 29.44558 | -78.09429 | 35888 ft | 515 kts | 79° |
| 2026-04-25 11:58 | 29.45662 | -78.01293 | 35965 ft | 516 kts | 79° |
| 2026-04-25 11:58 | 29.46762 | -77.93148 | 36040 ft | 517 kts | 80° |
| 2026-04-25 11:59 | 29.47863 | -77.84957 | 36069 ft | 519 kts | 80° |
| 2026-04-25 11:59 | 29.48833 | -77.77707 | 36135 ft | 520 kts | 80° |
| 2026-04-25 12:00 | 29.50384 | -77.66058 | 36212 ft | 521 kts | 80° |
| 2026-04-25 12:01 | 29.52016 | -77.53703 | 36284 ft | 522 kts | 80° |
| 2026-04-25 12:01 | 29.53099 | -77.45459 | 36392 ft | 521 kts | 80° |
| 2026-04-25 12:02 | 29.54705 | -77.33155 | 36455 ft | 522 kts | 80° |
| 2026-04-25 12:02 | 29.55775 | -77.24910 | 36479 ft | 522 kts | 81° |
| 2026-04-25 12:03 | 29.56841 | -77.16656 | 36525 ft | 522 kts | 81° |
| 2026-04-25 12:03 | 29.57901 | -77.08395 | 36559 ft | 523 kts | 81° |
| 2026-04-25 12:04 | 29.58957 | -77.00131 | 36577 ft | 523 kts | 81° |
| 2026-04-25 12:04 | 29.59682 | -76.94433 | 36598 ft | 523 kts | 81° |
| 2026-04-25 12:05 | 29.60732 | -76.86156 | 36627 ft | 523 kts | 81° |
| 2026-04-25 12:05 | 29.61283 | -76.82021 | 36744 ft | 521 kts | 81° |
| 2026-04-25 12:05 | 29.61848 | -76.78003 | 37077 ft | 515 kts | 80° |
| 2026-04-25 12:06 | 29.62436 | -76.73920 | 36975 ft | 517 kts | 80° |
| 2026-04-25 12:06 | 29.63025 | -76.69849 | 37004 ft | 517 kts | 80° |
| 2026-04-25 12:06 | 29.64195 | -76.61675 | 37013 ft | 518 kts | 80° |
| 2026-04-25 12:07 | 29.65348 | -76.53481 | 37015 ft | 519 kts | 81° |
| 2026-04-25 12:07 | 29.66491 | -76.45280 | 37019 ft | 520 kts | 81° |
| 2026-04-25 12:08 | 29.67630 | -76.37059 | 37017 ft | 521 kts | 81° |
| 2026-04-25 12:08 | 29.68768 | -76.28822 | 37027 ft | 521 kts | 81° |
| 2026-04-25 12:09 | 29.69901 | -76.20581 | 37018 ft | 521 kts | 81° |
| 2026-04-25 12:09 | 29.70803 | -76.13991 | 37017 ft | 521 kts | 81° |
| 2026-04-25 12:10 | 29.71929 | -76.05736 | 37022 ft | 521 kts | 81° |
| 2026-04-25 12:10 | 29.73049 | -75.97484 | 37026 ft | 521 kts | 81° |
| 2026-04-25 12:11 | 29.74162 | -75.89239 | 37030 ft | 521 kts | 81° |
| 2026-04-25 12:11 | 29.75271 | -75.80986 | 37028 ft | 522 kts | 81° |
| 2026-04-25 12:12 | 29.76188 | -75.74130 | 37025 ft | 522 kts | 82° |
| 2026-04-25 12:12 | 29.77466 | -75.64534 | 37031 ft | 522 kts | 82° |
| 2026-04-25 12:13 | 29.78560 | -75.56275 | 37033 ft | 522 kts | 82° |
| 2026-04-25 12:13 | 29.79649 | -75.48009 | 37032 ft | 522 kts | 82° |
| 2026-04-25 12:14 | 29.80733 | -75.39744 | 37028 ft | 522 kts | 82° |
| 2026-04-25 12:14 | 29.81462 | -75.34155 | 37033 ft | 522 kts | 82° |
| 2026-04-25 12:15 | 29.82540 | -75.25871 | 37037 ft | 522 kts | 82° |
| 2026-04-25 12:15 | 29.83612 | -75.17591 | 37037 ft | 523 kts | 82° |
| 2026-04-25 12:16 | 29.84678 | -75.09309 | 37039 ft | 523 kts | 82° |
| 2026-04-25 12:16 | 29.85741 | -75.01005 | 37078 ft | 524 kts | 82° |
| 2026-04-25 12:17 | 29.86794 | -74.92745 | 37089 ft | 526 kts | 82° |
| 2026-04-25 12:17 | 29.87853 | -74.84392 | 37101 ft | 527 kts | 82° |
| 2026-04-25 12:18 | 29.88909 | -74.76023 | 37101 ft | 529 kts | 82° |
| 2026-04-25 12:18 | 29.89964 | -74.67616 | 37102 ft | 530 kts | 82° |
| 2026-04-25 12:19 | 29.91345 | -74.56537 | 37101 ft | 532 kts | 82° |
| 2026-04-25 12:20 | 29.92257 | -74.49183 | 37102 ft | 533 kts | 82° |
| 2026-04-25 12:20 | 29.93302 | -74.40713 | 37099 ft | 534 kts | 82° |
| 2026-04-25 12:21 | 29.94335 | -74.32297 | 37087 ft | 535 kts | 82° |
| 2026-04-25 12:21 | 29.95372 | -74.23800 | 37102 ft | 535 kts | 82° |
| 2026-04-25 12:22 | 29.96404 | -74.15294 | 37103 ft | 536 kts | 82° |
| 2026-04-25 12:22 | 29.97433 | -74.06767 | 37108 ft | 537 kts | 82° |
| 2026-04-25 12:23 | 29.98458 | -73.98225 | 37096 ft | 538 kts | 82° |
| 2026-04-25 12:23 | 29.99480 | -73.89662 | 37097 ft | 538 kts | 82° |
| 2026-04-25 12:24 | 30.00497 | -73.81098 | 37102 ft | 539 kts | 82° |
| 2026-04-25 12:24 | 30.01303 | -73.74272 | 37101 ft | 539 kts | 82° |
| 2026-04-25 12:25 | 30.02197 | -73.66664 | 37100 ft | 540 kts | 82° |
| 2026-04-25 12:25 | 30.03201 | -73.58073 | 37092 ft | 540 kts | 82° |
| 2026-04-25 12:26 | 30.04201 | -73.49469 | 37106 ft | 541 kts | 82° |
| 2026-04-25 12:26 | 30.05197 | -73.40851 | 37101 ft | 542 kts | 82° |
| 2026-04-25 12:27 | 30.06188 | -73.32225 | 37099 ft | 542 kts | 82° |
| 2026-04-25 12:27 | 30.07176 | -73.23570 | 37091 ft | 543 kts | 82° |
| 2026-04-25 12:28 | 30.08159 | -73.14908 | 37104 ft | 543 kts | 82° |
| 2026-04-25 12:28 | 30.09129 | -73.06306 | 37102 ft | 544 kts | 82° |
| 2026-04-25 12:29 | 30.10104 | -72.97617 | 37099 ft | 545 kts | 82° |
| 2026-04-25 12:29 | 30.10857 | -72.90862 | 37111 ft | 545 kts | 82° |
| 2026-04-25 12:30 | 30.11735 | -72.82943 | 37108 ft | 545 kts | 82° |
| 2026-04-25 12:30 | 30.12696 | -72.74239 | 37099 ft | 546 kts | 82° |
| 2026-04-25 12:31 | 30.13650 | -72.65543 | 37102 ft | 546 kts | 82° |
| 2026-04-25 12:31 | 30.14592 | -72.56901 | 37092 ft | 546 kts | 82° |
| 2026-04-25 12:32 | 30.15532 | -72.48201 | 37100 ft | 546 kts | 83° |
| 2026-04-25 12:32 | 30.15791 | -72.39449 | 37096 ft | 546 kts | 93° |
| 2026-04-25 12:33 | 30.15324 | -72.30696 | 37108 ft | 546 kts | 94° |
| 2026-04-25 12:33 | 30.14849 | -72.21933 | 37097 ft | 546 kts | 94° |
| 2026-04-25 12:34 | 30.14412 | -72.13171 | 37102 ft | 546 kts | 93° |
| 2026-04-25 12:34 | 30.14092 | -72.06494 | 37103 ft | 547 kts | 93° |
| 2026-04-25 12:35 | 30.13698 | -71.98279 | 37107 ft | 547 kts | 93° |
| 2026-04-25 12:35 | 30.13343 | -71.90984 | 37101 ft | 548 kts | 93° |
| 2026-04-25 12:36 | 30.12905 | -71.82191 | 37098 ft | 548 kts | 93° |
| 2026-04-25 12:36 | 30.12461 | -71.73397 | 37103 ft | 548 kts | 94° |
| 2026-04-25 12:37 | 30.12010 | -71.64593 | 37103 ft | 549 kts | 94° |
| 2026-04-25 12:37 | 30.11553 | -71.55782 | 37102 ft | 549 kts | 94° |
| 2026-04-25 12:38 | 30.11090 | -71.46970 | 37097 ft | 550 kts | 94° |
| 2026-04-25 12:38 | 30.10621 | -71.38152 | 37103 ft | 550 kts | 94° |
| 2026-04-25 12:39 | 30.10146 | -71.29329 | 37101 ft | 551 kts | 94° |
| 2026-04-25 12:39 | 30.09711 | -71.21350 | 37102 ft | 551 kts | 94° |
| 2026-04-25 12:40 | 30.09337 | -71.14555 | 37104 ft | 551 kts | 94° |
| 2026-04-25 12:40 | 30.08845 | -71.05711 | 37100 ft | 552 kts | 94° |
| 2026-04-25 12:41 | 30.08346 | -70.96849 | 37100 ft | 552 kts | 94° |
| 2026-04-25 12:41 | 30.07844 | -70.88053 | 37102 ft | 552 kts | 94° |
| 2026-04-25 12:42 | 30.07333 | -70.79204 | 37099 ft | 552 kts | 94° |
| 2026-04-25 12:42 | 30.06816 | -70.70343 | 37124 ft | 552 kts | 94° |
| 2026-04-25 12:43 | 30.06294 | -70.61492 | 37098 ft | 552 kts | 94° |
| 2026-04-25 12:43 | 30.05503 | -70.48282 | 37089 ft | 551 kts | 94° |
| 2026-04-25 12:44 | 30.04967 | -70.39464 | 37100 ft | 550 kts | 94° |
| 2026-04-25 12:45 | 30.04322 | -70.28977 | 37096 ft | 549 kts | 94° |
| 2026-04-25 12:45 | 30.03501 | -70.15805 | 37093 ft | 548 kts | 94° |
| 2026-04-25 12:46 | 30.02947 | -70.07035 | 37101 ft | 548 kts | 94° |
| 2026-04-25 12:46 | 30.02387 | -69.98266 | 37101 ft | 548 kts | 94° |
| 2026-04-25 12:47 | 30.01824 | -69.89545 | 37101 ft | 548 kts | 94° |
| 2026-04-25 12:47 | 30.01251 | -69.80765 | 37099 ft | 549 kts | 94° |
| 2026-04-25 12:48 | 30.00672 | -69.71978 | 37103 ft | 550 kts | 94° |
| 2026-04-25 12:48 | 30.00086 | -69.63173 | 37101 ft | 550 kts | 94° |
| 2026-04-25 12:49 | 29.99494 | -69.54366 | 37096 ft | 551 kts | 94° |
| 2026-04-25 12:49 | 29.99084 | -69.48322 | 37095 ft | 551 kts | 94° |
| 2026-04-25 12:50 | 29.98482 | -69.39504 | 37100 ft | 552 kts | 95° |
| 2026-04-25 12:50 | 29.97872 | -69.30675 | 37099 ft | 552 kts | 95° |
| 2026-04-25 12:51 | 29.97257 | -69.21846 | 37096 ft | 552 kts | 95° |
| 2026-04-25 12:51 | 29.96639 | -69.13066 | 37093 ft | 553 kts | 95° |
| 2026-04-25 12:52 | 29.96010 | -69.04222 | 37100 ft | 553 kts | 95° |
| 2026-04-25 12:52 | 29.95376 | -68.95380 | 37098 ft | 553 kts | 95° |
| 2026-04-25 12:53 | 29.94736 | -68.86541 | 37099 ft | 553 kts | 95° |
| 2026-04-25 12:53 | 29.94090 | -68.77715 | 37041 ft | 550 kts | 95° |
| 2026-04-25 12:54 | 29.93447 | -68.68989 | 37086 ft | 550 kts | 95° |
| 2026-04-25 12:54 | 29.92996 | -68.62924 | 37108 ft | 551 kts | 95° |
| 2026-04-25 12:55 | 29.92444 | -68.55548 | 37102 ft | 552 kts | 95° |
| 2026-04-25 12:55 | 29.91669 | -68.45287 | 37096 ft | 553 kts | 95° |
| 2026-04-25 12:56 | 29.90995 | -68.36448 | 37099 ft | 554 kts | 95° |
| 2026-04-25 12:56 | 29.90313 | -68.27589 | 37097 ft | 555 kts | 95° |
| 2026-04-25 12:57 | 29.89625 | -68.18716 | 37100 ft | 556 kts | 95° |
| 2026-04-25 12:57 | 29.88929 | -68.09827 | 37094 ft | 557 kts | 95° |
| 2026-04-25 12:58 | 29.88232 | -68.01001 | 37098 ft | 557 kts | 95° |
| 2026-04-25 12:58 | 29.87524 | -67.92108 | 37095 ft | 558 kts | 95° |
| 2026-04-25 12:59 | 29.86807 | -67.83198 | 37106 ft | 558 kts | 95° |
| 2026-04-25 12:59 | 29.86314 | -67.77101 | 37088 ft | 551 kts | 95° |
| 2026-04-25 13:00 | 29.85838 | -67.71248 | 37084 ft | 547 kts | 95° |
| 2026-04-25 13:00 | 29.84888 | -67.59657 | 37096 ft | 545 kts | 95° |
| 2026-04-25 13:01 | 29.84169 | -67.50987 | 37097 ft | 545 kts | 95° |
| 2026-04-25 13:01 | 29.83446 | -67.42326 | 37099 ft | 546 kts | 95° |
| 2026-04-25 13:02 | 29.82714 | -67.33623 | 37100 ft | 547 kts | 96° |
| 2026-04-25 13:02 | 29.81972 | -67.24880 | 37096 ft | 548 kts | 96° |
| 2026-04-25 13:03 | 29.81224 | -67.16130 | 37083 ft | 550 kts | 96° |
| 2026-04-25 13:03 | 29.80468 | -67.07347 | 37091 ft | 551 kts | 96° |
| 2026-04-25 13:04 | 29.79704 | -66.98553 | 37093 ft | 552 kts | 96° |
| 2026-04-25 13:04 | 29.79175 | -66.92502 | 37091 ft | 553 kts | 96° |
| 2026-04-25 13:05 | 29.78405 | -66.83747 | 37082 ft | 554 kts | 96° |
| 2026-04-25 13:05 | 29.77622 | -66.74915 | 37092 ft | 555 kts | 96° |
| 2026-04-25 13:06 | 29.76831 | -66.66061 | 37093 ft | 556 kts | 96° |
| 2026-04-25 13:06 | 29.76033 | -66.57195 | 37092 ft | 557 kts | 96° |
| 2026-04-25 13:07 | 29.75228 | -66.48318 | 37084 ft | 557 kts | 96° |
| 2026-04-25 13:07 | 29.74418 | -66.39444 | 37086 ft | 558 kts | 96° |
| 2026-04-25 13:08 | 29.73600 | -66.30563 | 37087 ft | 558 kts | 96° |
| 2026-04-25 13:08 | 29.72782 | -66.21739 | 37082 ft | 558 kts | 96° |
| 2026-04-25 13:09 | 29.71953 | -66.12867 | 37085 ft | 558 kts | 96° |
| 2026-04-25 13:09 | 29.71379 | -66.06765 | 37083 ft | 558 kts | 96° |
| 2026-04-25 13:10 | 29.70539 | -65.97884 | 37081 ft | 557 kts | 96° |
| 2026-04-25 13:10 | 29.69696 | -65.89021 | 37076 ft | 557 kts | 97° |
| 2026-04-25 13:11 | 29.68852 | -65.80225 | 37086 ft | 556 kts | 97° |
| 2026-04-25 13:11 | 29.67998 | -65.71384 | 37082 ft | 556 kts | 97° |
| 2026-04-25 13:12 | 29.67137 | -65.62536 | 37081 ft | 556 kts | 97° |
| 2026-04-25 13:12 | 29.66417 | -65.55179 | 37073 ft | 557 kts | 97° |
| 2026-04-25 13:13 | 29.65397 | -65.44842 | 37085 ft | 557 kts | 97° |
| 2026-04-25 13:13 | 29.64516 | -65.35964 | 37084 ft | 558 kts | 97° |
| 2026-04-25 13:14 | 29.63628 | -65.27084 | 37079 ft | 559 kts | 97° |
| 2026-04-25 13:14 | 29.63018 | -65.21030 | 37078 ft | 560 kts | 97° |
| 2026-04-25 13:15 | 29.62117 | -65.12125 | 37105 ft | 561 kts | 97° |
| 2026-04-25 13:15 | 29.61210 | -65.03214 | 37077 ft | 560 kts | 97° |
| 2026-04-25 13:16 | 29.60308 | -64.94389 | 37019 ft | 559 kts | 101° |
| 2026-04-25 13:16 | 29.59390 | -64.85500 | 37080 ft | 561 kts | 102° |
| 2026-04-25 13:17 | 29.58461 | -64.76586 | 37085 ft | 563 kts | 102° |
| 2026-04-25 13:17 | 29.57523 | -64.67632 | 37087 ft | 565 kts | 102° |
| 2026-04-25 13:18 | 29.56580 | -64.58666 | 37083 ft | 566 kts | 102° |
| 2026-04-25 13:18 | 29.55626 | -64.49665 | 37082 ft | 568 kts | 102° |
| 2026-04-25 13:19 | 29.54665 | -64.40652 | 37081 ft | 569 kts | 102° |
| 2026-04-25 13:19 | 29.54346 | -64.37668 | 37080 ft | 569 kts | 102° |
| 2026-04-25 13:20 | 29.53033 | -64.25484 | 37079 ft | 571 kts | 103° |
| 2026-04-25 13:20 | 29.52047 | -64.16403 | 37081 ft | 573 kts | 103° |
| 2026-04-25 13:21 | 29.51053 | -64.07305 | 37075 ft | 574 kts | 103° |
| 2026-04-25 13:21 | 29.50051 | -63.98186 | 37065 ft | 576 kts | 103° |
| 2026-04-25 13:22 | 29.49046 | -63.89111 | 37080 ft | 578 kts | 103° |
| 2026-04-25 13:23 | 29.47512 | -63.75351 | 37067 ft | 580 kts | 103° |
| 2026-04-25 13:23 | 29.46479 | -63.66159 | 37075 ft | 581 kts | 104° |
| 2026-04-25 13:24 | 29.45614 | -63.58510 | 37082 ft | 582 kts | 104° |
| 2026-04-25 13:24 | 29.44649 | -63.50022 | 37072 ft | 583 kts | 104° |
| 2026-04-25 13:25 | 29.43837 | -63.42924 | 37053 ft | 584 kts | 104° |
| 2026-04-25 13:25 | 29.42776 | -63.33678 | 37066 ft | 585 kts | 104° |
| 2026-04-25 13:26 | 29.41705 | -63.24419 | 37070 ft | 585 kts | 104° |
| 2026-04-25 13:26 | 29.40628 | -63.15163 | 37070 ft | 586 kts | 104° |
| 2026-04-25 13:27 | 29.39544 | -63.05901 | 37063 ft | 586 kts | 104° |
| 2026-04-25 13:27 | 29.38454 | -62.96641 | 37067 ft | 586 kts | 104° |
| 2026-04-25 13:28 | 29.37357 | -62.87385 | 37066 ft | 586 kts | 104° |
| 2026-04-25 13:28 | 29.36260 | -62.78185 | 37049 ft | 586 kts | 104° |
| 2026-04-25 13:29 | 29.35148 | -62.68920 | 37068 ft | 586 kts | 104° |
| 2026-04-25 13:29 | 29.34141 | -62.60571 | 37067 ft | 587 kts | 105° |
| 2026-04-25 13:30 | 29.32688 | -62.48606 | 37073 ft | 588 kts | 104° |
| 2026-04-25 13:31 | 29.30981 | -62.34659 | 37067 ft | 590 kts | 104° |
| 2026-04-25 13:31 | 29.29839 | -62.25394 | 37069 ft | 590 kts | 104° |
| 2026-04-25 13:32 | 29.28684 | -62.16076 | 37059 ft | 591 kts | 104° |
| 2026-04-25 13:32 | 29.27519 | -62.06737 | 37067 ft | 592 kts | 104° |
| 2026-04-25 13:33 | 29.26345 | -61.97386 | 37063 ft | 593 kts | 104° |
| 2026-04-25 13:33 | 29.25163 | -61.88016 | 37031 ft | 594 kts | 104° |
| 2026-04-25 13:34 | 29.23973 | -61.78644 | 37046 ft | 595 kts | 104° |
| 2026-04-25 13:34 | 29.22918 | -61.70375 | 37050 ft | 596 kts | 104° |
| 2026-04-25 13:35 | 29.21958 | -61.62889 | 37050 ft | 597 kts | 104° |
| 2026-04-25 13:35 | 29.20747 | -61.53484 | 37044 ft | 597 kts | 104° |
| 2026-04-25 13:36 | 29.19534 | -61.44125 | 37047 ft | 597 kts | 105° |
| 2026-04-25 13:36 | 29.18309 | -61.34717 | 37047 ft | 597 kts | 105° |
| 2026-04-25 13:37 | 29.17077 | -61.25316 | 37041 ft | 597 kts | 105° |
| 2026-04-25 13:37 | 29.15838 | -61.15920 | 37049 ft | 597 kts | 105° |
| 2026-04-25 13:38 | 29.14595 | -61.06535 | 37046 ft | 597 kts | 105° |
| 2026-04-25 13:38 | 29.13345 | -60.97152 | 37040 ft | 596 kts | 105° |
| 2026-04-25 13:39 | 29.12088 | -60.87771 | 37045 ft | 596 kts | 105° |
| 2026-04-25 13:39 | 29.11000 | -60.79690 | 37043 ft | 596 kts | 105° |
| 2026-04-25 13:40 | 29.09812 | -60.70911 | 37034 ft | 596 kts | 105° |
| 2026-04-25 13:40 | 29.08539 | -60.61552 | 37040 ft | 595 kts | 105° |
| 2026-04-25 13:41 | 29.07260 | -60.52192 | 37056 ft | 595 kts | 105° |
| 2026-04-25 13:41 | 29.05975 | -60.42845 | 37040 ft | 595 kts | 105° |
| 2026-04-25 13:42 | 29.04685 | -60.33511 | 37055 ft | 594 kts | 105° |
| 2026-04-25 13:42 | 29.03397 | -60.24236 | 37149 ft | 594 kts | 105° |
| 2026-04-25 13:43 | 29.02095 | -60.14914 | 37214 ft | 594 kts | 105° |
| 2026-04-25 13:43 | 29.00785 | -60.05578 | 37233 ft | 595 kts | 105° |
| 2026-04-25 13:44 | 28.99449 | -59.96244 | 37275 ft | 596 kts | 106° |
| 2026-04-25 13:44 | 28.98192 | -59.88350 | 37269 ft | 596 kts | 107° |
| 2026-04-25 13:45 | 28.96700 | -59.79370 | 37311 ft | 596 kts | 107° |
| 2026-04-25 13:45 | 28.95163 | -59.70082 | 37508 ft | 591 kts | 106° |
| 2026-04-25 13:45 | 28.94415 | -59.65488 | 37836 ft | 586 kts | 107° |
| 2026-04-25 13:46 | 28.93665 | -59.60883 | 37662 ft | 591 kts | 107° |
| 2026-04-25 13:46 | 28.92165 | -59.51703 | 37652 ft | 593 kts | 107° |
| 2026-04-25 13:47 | 28.90645 | -59.42444 | 37660 ft | 594 kts | 107° |
| 2026-04-25 13:47 | 28.89115 | -59.33173 | 37670 ft | 595 kts | 107° |
| 2026-04-25 13:48 | 28.87575 | -59.23888 | 37695 ft | 595 kts | 107° |
| 2026-04-25 13:48 | 28.86036 | -59.14632 | 37943 ft | 590 kts | 107° |
| 2026-04-25 13:48 | 28.85282 | -59.10108 | 38157 ft | 587 kts | 107° |
| 2026-04-25 13:49 | 28.84519 | -59.05541 | 38330 ft | 584 kts | 107° |
| 2026-04-25 13:49 | 28.83757 | -59.01000 | 38458 ft | 582 kts | 107° |
| 2026-04-25 13:49 | 28.83252 | -58.97994 | 38510 ft | 581 kts | 107° |
| 2026-04-25 13:50 | 28.81945 | -58.90264 | 38592 ft | 581 kts | 107° |
| 2026-04-25 13:50 | 28.80415 | -58.81225 | 38814 ft | 577 kts | 107° |
| 2026-04-25 13:50 | 28.79656 | -58.76744 | 38959 ft | 575 kts | 107° |
| 2026-04-25 13:51 | 28.78895 | -58.72269 | 38996 ft | 574 kts | 107° |
| 2026-04-25 13:51 | 28.77374 | -58.63358 | 39033 ft | 573 kts | 108° |
| 2026-04-25 13:52 | 28.75846 | -58.54450 | 39050 ft | 572 kts | 108° |
| 2026-04-25 13:52 | 28.74315 | -58.45560 | 39033 ft | 571 kts | 108° |
| 2026-04-25 13:53 | 28.72780 | -58.36673 | 39044 ft | 571 kts | 108° |
| 2026-04-25 13:53 | 28.71251 | -58.27859 | 39046 ft | 570 kts | 108° |
| 2026-04-25 13:54 | 28.69707 | -58.18995 | 39031 ft | 570 kts | 108° |
| 2026-04-25 13:54 | 28.68450 | -58.11801 | 39038 ft | 570 kts | 108° |
| 2026-04-25 13:55 | 28.66899 | -58.02962 | 39045 ft | 569 kts | 108° |
| 2026-04-25 13:55 | 28.65343 | -57.94127 | 39043 ft | 569 kts | 108° |
| 2026-04-25 13:56 | 28.63780 | -57.85290 | 39040 ft | 569 kts | 108° |
| 2026-04-25 13:56 | 28.62214 | -57.76469 | 39046 ft | 569 kts | 108° |
| 2026-04-25 13:57 | 28.60645 | -57.67667 | 39041 ft | 568 kts | 108° |
| 2026-04-25 13:57 | 28.59073 | -57.58881 | 39041 ft | 568 kts | 108° |
| 2026-04-25 13:58 | 28.57482 | -57.50025 | 39047 ft | 568 kts | 108° |
| 2026-04-25 13:58 | 28.55902 | -57.41262 | 39051 ft | 568 kts | 108° |
| 2026-04-25 13:59 | 28.54308 | -57.32457 | 39033 ft | 568 kts | 108° |
| 2026-04-25 13:59 | 28.53038 | -57.25465 | 39039 ft | 568 kts | 108° |
| 2026-04-25 14:00 | 28.51971 | -57.19613 | 39029 ft | 568 kts | 108° |
| 2026-04-25 14:00 | 28.49818 | -57.07840 | 39039 ft | 569 kts | 108° |
| 2026-04-25 14:01 | 28.48211 | -56.99090 | 39045 ft | 569 kts | 108° |
| 2026-04-25 14:01 | 28.46587 | -56.90282 | 39050 ft | 569 kts | 108° |
| 2026-04-25 14:02 | 28.44955 | -56.81464 | 39032 ft | 569 kts | 108° |
| 2026-04-25 14:02 | 28.43320 | -56.72662 | 39055 ft | 569 kts | 108° |
| 2026-04-25 14:03 | 28.41680 | -56.63868 | 39038 ft | 569 kts | 108° |
| 2026-04-25 14:03 | 28.40032 | -56.55067 | 39029 ft | 570 kts | 108° |
| 2026-04-25 14:04 | 28.38379 | -56.46267 | 39043 ft | 570 kts | 108° |
| 2026-04-25 14:04 | 28.37064 | -56.39294 | 39050 ft | 570 kts | 108° |
| 2026-04-25 14:05 | 28.35397 | -56.30483 | 39313 ft | 570 kts | 107° |
| 2026-04-25 14:05 | 28.33721 | -56.21663 | 39145 ft | 574 kts | 105° |
| 2026-04-25 14:06 | 28.32032 | -56.12797 | 39067 ft | 575 kts | 105° |
| 2026-04-25 14:06 | 28.30334 | -56.03913 | 39054 ft | 575 kts | 105° |
| 2026-04-25 14:07 | 28.28642 | -55.95094 | 39043 ft | 575 kts | 106° |
| 2026-04-25 14:07 | 28.26932 | -55.86221 | 39043 ft | 575 kts | 106° |
| 2026-04-25 14:08 | 28.25218 | -55.77360 | 39028 ft | 575 kts | 106° |
| 2026-04-25 14:08 | 28.23499 | -55.68502 | 39046 ft | 575 kts | 106° |
| 2026-04-25 14:09 | 28.21775 | -55.59651 | 39046 ft | 575 kts | 106° |
| 2026-04-25 14:09 | 28.20374 | -55.52487 | 39054 ft | 575 kts | 106° |
| 2026-04-25 14:10 | 28.18933 | -55.45132 | 39042 ft | 575 kts | 106° |
| 2026-04-25 14:10 | 28.17193 | -55.36284 | 39046 ft | 574 kts | 106° |
| 2026-04-25 14:11 | 28.15449 | -55.27448 | 39049 ft | 575 kts | 106° |
| 2026-04-25 14:11 | 28.13699 | -55.18614 | 39033 ft | 575 kts | 107° |
| 2026-04-25 14:12 | 28.11939 | -55.09762 | 39047 ft | 575 kts | 107° |
| 2026-04-25 14:12 | 28.10177 | -55.00928 | 39048 ft | 575 kts | 107° |
| 2026-04-25 14:13 | 28.08406 | -54.92086 | 39039 ft | 576 kts | 107° |
| 2026-04-25 14:13 | 28.06628 | -54.83234 | 39048 ft | 576 kts | 107° |
| 2026-04-25 14:14 | 28.04846 | -54.74395 | 39022 ft | 576 kts | 107° |
| 2026-04-25 14:14 | 28.03226 | -54.66388 | 39041 ft | 576 kts | 107° |
| 2026-04-25 14:15 | 28.01622 | -54.58482 | 39047 ft | 577 kts | 107° |
| 2026-04-25 14:15 | 27.99820 | -54.49629 | 39043 ft | 577 kts | 107° |
| 2026-04-25 14:16 | 27.98008 | -54.40764 | 39048 ft | 577 kts | 107° |
| 2026-04-25 14:16 | 27.96191 | -54.31901 | 39052 ft | 578 kts | 107° |
| 2026-04-25 14:17 | 27.94376 | -54.23080 | 39040 ft | 579 kts | 107° |
| 2026-04-25 14:17 | 27.92546 | -54.14213 | 39047 ft | 579 kts | 107° |
| 2026-04-25 14:18 | 27.90709 | -54.05345 | 39052 ft | 579 kts | 107° |
| 2026-04-25 14:18 | 27.88865 | -53.96473 | 39042 ft | 580 kts | 108° |
| 2026-04-25 14:19 | 27.87015 | -53.87604 | 39050 ft | 580 kts | 108° |
| 2026-04-25 14:19 | 27.85368 | -53.79730 | 39054 ft | 580 kts | 108° |
| 2026-04-25 14:20 | 27.83875 | -53.72618 | 39058 ft | 580 kts | 108° |
| 2026-04-25 14:20 | 27.82022 | -53.63812 | 39075 ft | 580 kts | 108° |
| 2026-04-25 14:21 | 27.80149 | -53.54943 | 39082 ft | 581 kts | 108° |
| 2026-04-25 14:21 | 27.78267 | -53.46059 | 39078 ft | 581 kts | 108° |
| 2026-04-25 14:22 | 27.76379 | -53.37180 | 39083 ft | 582 kts | 108° |
| 2026-04-25 14:22 | 27.74483 | -53.28292 | 39079 ft | 582 kts | 108° |
| 2026-04-25 14:23 | 27.72579 | -53.19399 | 39076 ft | 582 kts | 108° |
| 2026-04-25 14:23 | 27.70671 | -53.10511 | 39079 ft | 583 kts | 108° |
| 2026-04-25 14:24 | 27.68754 | -53.01615 | 39081 ft | 583 kts | 108° |
| 2026-04-25 14:24 | 27.67086 | -52.93900 | 39084 ft | 583 kts | 108° |
| 2026-04-25 14:25 | 27.65503 | -52.86596 | 39080 ft | 584 kts | 108° |
| 2026-04-25 14:25 | 27.63569 | -52.77701 | 39085 ft | 584 kts | 108° |
| 2026-04-25 14:26 | 27.61625 | -52.68787 | 39078 ft | 585 kts | 109° |
| 2026-04-25 14:26 | 27.59674 | -52.59866 | 39081 ft | 585 kts | 109° |
| 2026-04-25 14:27 | 27.57717 | -52.50953 | 39066 ft | 586 kts | 109° |
| 2026-04-25 14:27 | 27.55767 | -52.42099 | 39079 ft | 586 kts | 109° |
| 2026-04-25 14:28 | 27.53797 | -52.33184 | 39084 ft | 586 kts | 109° |
| 2026-04-25 14:28 | 27.51819 | -52.24265 | 39060 ft | 587 kts | 109° |
| 2026-04-25 14:29 | 27.49834 | -52.15339 | 39086 ft | 587 kts | 109° |
| 2026-04-25 14:29 | 27.48132 | -52.07709 | 39086 ft | 588 kts | 109° |
| 2026-04-25 14:30 | 27.46465 | -52.00257 | 39072 ft | 588 kts | 109° |
| 2026-04-25 14:30 | 27.43468 | -51.86907 | 39089 ft | 589 kts | 109° |
| 2026-04-25 14:31 | 27.41450 | -51.77955 | 39061 ft | 590 kts | 110° |
| 2026-04-25 14:31 | 27.39424 | -51.68994 | 39083 ft | 590 kts | 110° |
| 2026-04-25 14:32 | 27.37390 | -51.60029 | 39091 ft | 591 kts | 110° |
| 2026-04-25 14:32 | 27.35360 | -51.51109 | 39077 ft | 592 kts | 110° |
| 2026-04-25 14:33 | 27.33310 | -51.42130 | 39092 ft | 593 kts | 110° |
| 2026-04-25 14:33 | 27.31251 | -51.33139 | 39076 ft | 594 kts | 110° |
| 2026-04-25 14:34 | 27.29186 | -51.24147 | 39087 ft | 594 kts | 110° |
| 2026-04-25 14:34 | 27.27754 | -51.17935 | 39089 ft | 594 kts | 110° |
| 2026-04-25 14:35 | 27.25675 | -51.08931 | 39089 ft | 595 kts | 110° |
| 2026-04-25 14:35 | 27.23601 | -50.99981 | 39088 ft | 596 kts | 110° |
| 2026-04-25 14:36 | 27.21504 | -50.90958 | 39089 ft | 596 kts | 110° |
| 2026-04-25 14:36 | 27.19399 | -50.81930 | 39072 ft | 597 kts | 110° |
| 2026-04-25 14:37 | 27.17289 | -50.72904 | 39090 ft | 597 kts | 110° |
| 2026-04-25 14:37 | 27.15171 | -50.63878 | 39075 ft | 598 kts | 110° |
| 2026-04-25 14:38 | 27.13059 | -50.54901 | 39087 ft | 598 kts | 110° |
| 2026-04-25 14:38 | 27.10926 | -50.45868 | 39091 ft | 599 kts | 111° |
| 2026-04-25 14:39 | 27.08785 | -50.36822 | 39081 ft | 599 kts | 111° |
| 2026-04-25 14:39 | 27.07308 | -50.30603 | 39085 ft | 599 kts | 111° |
| 2026-04-25 14:40 | 27.05159 | -50.21572 | 39092 ft | 600 kts | 111° |
| 2026-04-25 14:40 | 27.03000 | -50.12525 | 39083 ft | 600 kts | 111° |
| 2026-04-25 14:41 | 27.00847 | -50.03476 | 39081 ft | 601 kts | 109° |
| 2026-04-25 14:41 | 26.99449 | -49.94173 | 39057 ft | 609 kts | 97° |
| 2026-04-25 14:42 | 26.99079 | -49.87902 | 39077 ft | 609 kts | 96° |
| 2026-04-25 14:42 | 26.98371 | -49.75215 | 39092 ft | 610 kts | 97° |
| 2026-04-25 14:43 | 26.97770 | -49.65727 | 39077 ft | 610 kts | 97° |
| 2026-04-25 14:43 | 26.97130 | -49.56288 | 39094 ft | 610 kts | 97° |
| 2026-04-25 14:44 | 26.96476 | -49.46790 | 39074 ft | 611 kts | 97° |
| 2026-04-25 14:44 | 26.96033 | -49.40344 | 39085 ft | 611 kts | 97° |
| 2026-04-25 14:45 | 26.95380 | -49.30853 | 39090 ft | 611 kts | 97° |
| 2026-04-25 14:45 | 26.94722 | -49.21355 | 39081 ft | 611 kts | 97° |
| 2026-04-25 14:46 | 26.94060 | -49.11914 | 39088 ft | 611 kts | 98° |
| 2026-04-25 14:46 | 26.93383 | -49.02361 | 39089 ft | 611 kts | 98° |
| 2026-04-25 14:47 | 26.92933 | -48.96066 | 39126 ft | 611 kts | 98° |
| 2026-04-25 14:47 | 26.92021 | -48.83443 | 39048 ft | 610 kts | 98° |
| 2026-04-25 14:48 | 26.91332 | -48.73971 | 39086 ft | 610 kts | 98° |
| 2026-04-25 14:48 | 26.90635 | -48.64496 | 39071 ft | 610 kts | 98° |
| 2026-04-25 14:49 | 26.89932 | -48.55021 | 39079 ft | 610 kts | 98° |
| 2026-04-25 14:49 | 26.89445 | -48.48527 | 39091 ft | 610 kts | 98° |
| 2026-04-25 14:50 | 26.88731 | -48.39060 | 39084 ft | 610 kts | 98° |
| 2026-04-25 14:50 | 26.88014 | -48.29630 | 39089 ft | 610 kts | 98° |
| 2026-04-25 14:51 | 26.87287 | -48.20150 | 39072 ft | 611 kts | 98° |
| 2026-04-25 14:51 | 26.86553 | -48.10671 | 39085 ft | 611 kts | 98° |
| 2026-04-25 14:52 | 26.85811 | -48.01168 | 39073 ft | 612 kts | 98° |
| 2026-04-25 14:52 | 26.85312 | -47.94826 | 39080 ft | 612 kts | 98° |
| 2026-04-25 14:53 | 26.84311 | -47.82204 | 39093 ft | 612 kts | 98° |
| 2026-04-25 14:53 | 26.83549 | -47.72701 | 39089 ft | 612 kts | 98° |
| 2026-04-25 14:54 | 26.82788 | -47.63279 | 39089 ft | 612 kts | 98° |
| 2026-04-25 14:54 | 26.82258 | -47.56772 | 39077 ft | 612 kts | 98° |
| 2026-04-25 14:55 | 26.81481 | -47.47284 | 39087 ft | 612 kts | 98° |
| 2026-04-25 14:55 | 26.80701 | -47.37846 | 39028 ft | 607 kts | 98° |
| 2026-04-25 14:56 | 26.79919 | -47.28448 | 39087 ft | 607 kts | 98° |
| 2026-04-25 14:56 | 26.79262 | -47.20623 | 39096 ft | 607 kts | 99° |
| 2026-04-25 14:57 | 26.78466 | -47.11213 | 39079 ft | 607 kts | 98° |
| 2026-04-25 14:57 | 26.77665 | -47.01808 | 39089 ft | 607 kts | 99° |
| 2026-04-25 14:58 | 26.76855 | -46.92379 | 39087 ft | 608 kts | 99° |
| 2026-04-25 14:58 | 26.76040 | -46.82958 | 39088 ft | 608 kts | 99° |
| 2026-04-25 14:59 | 26.75218 | -46.73534 | 39087 ft | 608 kts | 99° |
| 2026-04-25 14:59 | 26.74652 | -46.67085 | 39089 ft | 609 kts | 99° |
| 2026-04-25 15:00 | 26.73824 | -46.57721 | 39109 ft | 609 kts | 99° |
| 2026-04-25 15:00 | 26.72983 | -46.48271 | 39091 ft | 610 kts | 99° |
| 2026-04-25 15:01 | 26.72136 | -46.38821 | 39092 ft | 610 kts | 99° |
| 2026-04-25 15:01 | 26.71281 | -46.29362 | 39084 ft | 610 kts | 99° |
| 2026-04-25 15:02 | 26.70421 | -46.19919 | 39085 ft | 610 kts | 99° |
| 2026-04-25 15:02 | 26.69560 | -46.10537 | 39082 ft | 610 kts | 99° |
| 2026-04-25 15:03 | 26.68689 | -46.01106 | 39086 ft | 610 kts | 99° |
| 2026-04-25 15:03 | 26.67810 | -45.91663 | 39079 ft | 610 kts | 99° |
| 2026-04-25 15:04 | 26.66926 | -45.82231 | 39101 ft | 610 kts | 99° |
| 2026-04-25 15:04 | 26.66301 | -45.75608 | 39073 ft | 611 kts | 99° |
| 2026-04-25 15:05 | 26.65405 | -45.66171 | 39085 ft | 610 kts | 99° |
| 2026-04-25 15:06 | 26.64056 | -45.52078 | 39074 ft | 610 kts | 99° |
| 2026-04-25 15:06 | 26.63145 | -45.42643 | 39082 ft | 610 kts | 99° |
| 2026-04-25 15:07 | 26.62228 | -45.33216 | 39082 ft | 610 kts | 99° |
| 2026-04-25 15:07 | 26.61305 | -45.23785 | 39085 ft | 609 kts | 99° |
| 2026-04-25 15:08 | 26.60376 | -45.14369 | 39073 ft | 609 kts | 99° |
| 2026-04-25 15:08 | 26.59441 | -45.04949 | 39091 ft | 610 kts | 99° |
| 2026-04-25 15:09 | 26.58505 | -44.95598 | 38977 ft | 608 kts | 96° |
| 2026-04-25 15:09 | 26.57382 | -44.84446 | 39056 ft | 604 kts | 96° |
| 2026-04-25 15:10 | 26.56439 | -44.75133 | 39082 ft | 603 kts | 96° |
| 2026-04-25 15:11 | 26.55011 | -44.61162 | 39105 ft | 602 kts | 96° |
| 2026-04-25 15:11 | 26.54052 | -44.51864 | 39090 ft | 602 kts | 96° |
| 2026-04-25 15:12 | 26.52610 | -44.37988 | 39084 ft | 601 kts | 96° |
| 2026-04-25 15:12 | 26.51960 | -44.31784 | 39084 ft | 601 kts | 96° |
| 2026-04-25 15:13 | 26.50169 | -44.14797 | 39090 ft | 601 kts | 96° |
| 2026-04-25 15:14 | 26.49184 | -44.05535 | 39090 ft | 601 kts | 96° |
| 2026-04-25 15:14 | 26.48332 | -43.97579 | 39082 ft | 600 kts | 96° |
| 2026-04-25 15:15 | 26.47500 | -43.89853 | 39088 ft | 600 kts | 96° |
| 2026-04-25 15:15 | 26.46500 | -43.80602 | 39097 ft | 600 kts | 96° |
| 2026-04-25 15:16 | 26.45495 | -43.71365 | 39090 ft | 600 kts | 96° |
| 2026-04-25 15:16 | 26.43980 | -43.57555 | 39070 ft | 600 kts | 96° |
| 2026-04-25 15:17 | 26.42447 | -43.43704 | 39090 ft | 599 kts | 96° |
| 2026-04-25 15:18 | 26.41418 | -43.34474 | 39091 ft | 599 kts | 97° |
| 2026-04-25 15:18 | 26.39869 | -43.20684 | 39092 ft | 599 kts | 97° |
| 2026-04-25 15:19 | 26.39172 | -43.14518 | 39089 ft | 599 kts | 97° |
| 2026-04-25 15:19 | 26.38112 | -43.05192 | 39086 ft | 598 kts | 97° |
| 2026-04-25 15:20 | 26.37059 | -42.95978 | 39109 ft | 598 kts | 97° |
| 2026-04-25 15:20 | 26.36001 | -42.86767 | 39109 ft | 598 kts | 97° |
| 2026-04-25 15:21 | 26.34945 | -42.77628 | 39115 ft | 598 kts | 97° |
| 2026-04-25 15:21 | 26.33874 | -42.68418 | 39107 ft | 598 kts | 97° |
| 2026-04-25 15:22 | 26.32799 | -42.59223 | 39113 ft | 598 kts | 97° |
| 2026-04-25 15:22 | 26.31718 | -42.50025 | 39112 ft | 598 kts | 97° |
| 2026-04-25 15:23 | 26.30630 | -42.40826 | 39111 ft | 598 kts | 97° |
| 2026-04-25 15:23 | 26.29544 | -42.31691 | 39121 ft | 598 kts | 97° |
| 2026-04-25 15:24 | 26.28446 | -42.22500 | 39107 ft | 598 kts | 97° |
| 2026-04-25 15:24 | 26.28038 | -42.19105 | 39116 ft | 598 kts | 97° |
| 2026-04-25 15:25 | 26.26566 | -42.06898 | 39111 ft | 598 kts | 97° |
| 2026-04-25 15:25 | 26.25453 | -41.97716 | 39123 ft | 598 kts | 97° |
| 2026-04-25 15:26 | 26.24333 | -41.88534 | 39116 ft | 598 kts | 97° |
| 2026-04-25 15:26 | 26.23213 | -41.79403 | 39115 ft | 598 kts | 97° |
| 2026-04-25 15:27 | 26.22081 | -41.70217 | 39117 ft | 598 kts | 97° |
| 2026-04-25 15:28 | 26.20373 | -41.56455 | 39112 ft | 598 kts | 97° |
| 2026-04-25 15:28 | 26.19225 | -41.47272 | 39125 ft | 598 kts | 97° |
| 2026-04-25 15:29 | 26.18070 | -41.38075 | 39113 ft | 599 kts | 97° |
| 2026-04-25 15:29 | 26.17138 | -41.30686 | 39126 ft | 599 kts | 97° |
| 2026-04-25 15:30 | 26.16107 | -41.22560 | 39090 ft | 599 kts | 97° |
| 2026-04-25 15:30 | 26.14938 | -41.13379 | 39107 ft | 598 kts | 97° |
| 2026-04-25 15:31 | 26.13764 | -41.04208 | 39117 ft | 598 kts | 97° |
| 2026-04-25 15:31 | 26.12584 | -40.95038 | 39113 ft | 598 kts | 97° |
| 2026-04-25 15:32 | 26.11397 | -40.85863 | 39117 ft | 598 kts | 97° |
| 2026-04-25 15:32 | 26.10206 | -40.76700 | 39115 ft | 598 kts | 97° |
| 2026-04-25 15:33 | 26.08408 | -40.62953 | 39115 ft | 598 kts | 97° |
| 2026-04-25 15:33 | 26.07210 | -40.53853 | 39113 ft | 598 kts | 97° |
| 2026-04-25 15:34 | 26.05991 | -40.44638 | 39127 ft | 598 kts | 97° |
| 2026-04-25 15:34 | 26.05418 | -40.40323 | 39121 ft | 599 kts | 97° |
| 2026-04-25 15:35 | 26.03175 | -40.23530 | 39110 ft | 599 kts | 97° |
| 2026-04-25 15:36 | 26.01324 | -40.09774 | 39114 ft | 599 kts | 97° |
| 2026-04-25 15:36 | 25.99822 | -40.00676 | 39113 ft | 599 kts | 105° |
| 2026-04-25 15:37 | 25.97121 | -39.91927 | 39116 ft | 597 kts | 115° |
| 2026-04-25 15:37 | 25.93820 | -39.83465 | 39117 ft | 597 kts | 115° |
| 2026-04-25 15:38 | 25.90534 | -39.74994 | 39122 ft | 597 kts | 115° |
| 2026-04-25 15:38 | 25.87291 | -39.66487 | 39121 ft | 598 kts | 115° |
| 2026-04-25 15:39 | 25.84083 | -39.58022 | 39112 ft | 598 kts | 115° |
| 2026-04-25 15:39 | 25.83211 | -39.55727 | 39827 ft | 597 kts | 114° |
| 2026-04-25 15:39 | 25.81853 | -39.52153 | 39032 ft | 594 kts | 115° |
| 2026-04-25 15:40 | 25.79704 | -39.46511 | 39058 ft | 593 kts | 115° |
| 2026-04-25 15:40 | 25.75421 | -39.35303 | 39110 ft | 593 kts | 115° |
| 2026-04-25 15:41 | 25.72194 | -39.26886 | 39125 ft | 594 kts | 115° |
| 2026-04-25 15:41 | 25.68955 | -39.18450 | 39120 ft | 595 kts | 115° |
| 2026-04-25 15:42 | 25.66256 | -39.11435 | 39111 ft | 595 kts | 115° |
| 2026-04-25 15:42 | 25.63010 | -39.03010 | 39120 ft | 595 kts | 115° |
| 2026-04-25 15:43 | 25.59748 | -38.94563 | 39124 ft | 595 kts | 115° |
| 2026-04-25 15:43 | 25.56480 | -38.86116 | 39118 ft | 596 kts | 115° |
| 2026-04-25 15:44 | 25.53209 | -38.77680 | 39102 ft | 596 kts | 115° |
| 2026-04-25 15:44 | 25.50563 | -38.70868 | 39113 ft | 596 kts | 115° |
| 2026-04-25 15:45 | 25.47281 | -38.62434 | 39126 ft | 596 kts | 115° |
| 2026-04-25 15:45 | 25.44546 | -38.55420 | 39119 ft | 597 kts | 115° |
| 2026-04-25 15:46 | 25.40698 | -38.45569 | 39088 ft | 597 kts | 115° |
| 2026-04-25 15:46 | 25.37399 | -38.37140 | 39119 ft | 597 kts | 115° |
| 2026-04-25 15:47 | 25.34092 | -38.28710 | 39116 ft | 597 kts | 115° |
| 2026-04-25 15:47 | 25.30778 | -38.20280 | 39118 ft | 598 kts | 115° |
| 2026-04-25 15:48 | 25.27457 | -38.11848 | 39121 ft | 598 kts | 115° |
| 2026-04-25 15:48 | 25.24133 | -38.03424 | 39117 ft | 598 kts | 115° |
| 2026-04-25 15:49 | 25.20807 | -37.95012 | 39126 ft | 598 kts | 115° |
| 2026-04-25 15:49 | 25.18132 | -37.88259 | 39121 ft | 598 kts | 115° |
| 2026-04-25 15:50 | 25.14793 | -37.79845 | 39116 ft | 598 kts | 115° |
| 2026-04-25 15:50 | 25.11449 | -37.71436 | 39138 ft | 598 kts | 115° |
| 2026-04-25 15:51 | 25.08645 | -37.64395 | 39119 ft | 599 kts | 115° |
| 2026-04-25 15:51 | 25.04733 | -37.54595 | 39119 ft | 599 kts | 115° |
| 2026-04-25 15:52 | 25.01367 | -37.46178 | 39132 ft | 599 kts | 115° |
| 2026-04-25 15:52 | 24.97994 | -37.37763 | 39091 ft | 600 kts | 115° |
| 2026-04-25 15:53 | 24.94644 | -37.29417 | 39111 ft | 600 kts | 115° |
| 2026-04-25 15:53 | 24.91265 | -37.21018 | 39135 ft | 600 kts | 115° |
| 2026-04-25 15:54 | 24.87870 | -37.12597 | 39121 ft | 600 kts | 115° |
| 2026-04-25 15:54 | 24.85129 | -37.05808 | 39119 ft | 600 kts | 115° |
| 2026-04-25 15:55 | 24.81735 | -36.97417 | 39129 ft | 600 kts | 115° |
| 2026-04-25 15:55 | 24.78329 | -36.89012 | 39112 ft | 600 kts | 116° |
| 2026-04-25 15:56 | 24.74946 | -36.80681 | 39118 ft | 600 kts | 116° |
| 2026-04-25 15:56 | 24.71536 | -36.72299 | 39128 ft | 600 kts | 116° |
| 2026-04-25 15:57 | 24.68116 | -36.63908 | 39107 ft | 600 kts | 116° |
| 2026-04-25 15:57 | 24.64698 | -36.55538 | 39114 ft | 600 kts | 116° |
| 2026-04-25 15:58 | 24.61270 | -36.47162 | 39118 ft | 600 kts | 116° |
| 2026-04-25 15:58 | 24.57842 | -36.38799 | 39117 ft | 600 kts | 116° |
| 2026-04-25 15:59 | 24.54413 | -36.30449 | 39084 ft | 600 kts | 116° |
| 2026-04-25 15:59 | 24.51623 | -36.23665 | 39098 ft | 598 kts | 118° |
| 2026-04-25 16:00 | 24.49336 | -36.18106 | 39115 ft | 595 kts | 118° |
| 2026-04-25 16:00 | 24.44800 | -36.07123 | 39119 ft | 592 kts | 118° |
| 2026-04-25 16:01 | 24.41419 | -35.98954 | 39120 ft | 592 kts | 118° |
| 2026-04-25 16:01 | 24.38008 | -35.90723 | 39097 ft | 591 kts | 118° |
| 2026-04-25 16:02 | 24.34602 | -35.82518 | 39099 ft | 590 kts | 118° |
| 2026-04-25 16:02 | 24.31197 | -35.74330 | 39127 ft | 590 kts | 118° |
| 2026-04-25 16:03 | 24.27786 | -35.66146 | 39109 ft | 590 kts | 118° |
| 2026-04-25 16:03 | 24.24374 | -35.57972 | 39109 ft | 589 kts | 118° |
| 2026-04-25 16:04 | 24.20960 | -35.49809 | 39121 ft | 588 kts | 118° |
| 2026-04-25 16:04 | 24.18208 | -35.43237 | 39111 ft | 588 kts | 118° |
| 2026-04-25 16:05 | 24.14793 | -35.35099 | 39116 ft | 588 kts | 118° |
| 2026-04-25 16:06 | 24.09661 | -35.22893 | 39122 ft | 587 kts | 118° |
| 2026-04-25 16:06 | 24.06240 | -35.14775 | 39103 ft | 587 kts | 118° |
| 2026-04-25 16:07 | 24.02814 | -35.06659 | 39110 ft | 586 kts | 118° |
| 2026-04-25 16:07 | 23.99411 | -34.98623 | 39127 ft | 585 kts | 119° |
| 2026-04-25 16:08 | 23.95824 | -34.90647 | 39115 ft | 584 kts | 121° |
| 2026-04-25 16:08 | 23.92140 | -34.82735 | 39121 ft | 584 kts | 121° |
| 2026-04-25 16:09 | 23.88469 | -34.74824 | 39118 ft | 583 kts | 121° |
| 2026-04-25 16:09 | 23.85479 | -34.68328 | 39118 ft | 583 kts | 120° |
| 2026-04-25 16:10 | 23.82486 | -34.61810 | 39121 ft | 583 kts | 120° |
| 2026-04-25 16:10 | 23.78224 | -34.52544 | 39123 ft | 583 kts | 120° |
| 2026-04-25 16:11 | 23.74591 | -34.44667 | 39124 ft | 583 kts | 120° |
| 2026-04-25 16:11 | 23.70940 | -34.36768 | 39117 ft | 582 kts | 120° |
| 2026-04-25 16:12 | 23.67308 | -34.28922 | 39118 ft | 582 kts | 120° |
| 2026-04-25 16:12 | 23.63654 | -34.21043 | 39124 ft | 582 kts | 121° |
| 2026-04-25 16:13 | 23.59996 | -34.13168 | 39119 ft | 581 kts | 121° |
| 2026-04-25 16:13 | 23.56339 | -34.05308 | 39120 ft | 581 kts | 121° |
| 2026-04-25 16:14 | 23.52679 | -33.97453 | 39125 ft | 581 kts | 121° |
| 2026-04-25 16:14 | 23.49747 | -33.91170 | 39127 ft | 581 kts | 121° |
| 2026-04-25 16:15 | 23.46056 | -33.83273 | 39117 ft | 581 kts | 121° |
| 2026-04-25 16:15 | 23.42385 | -33.75431 | 39124 ft | 581 kts | 121° |
| 2026-04-25 16:16 | 23.38711 | -33.67597 | 39115 ft | 581 kts | 121° |
| 2026-04-25 16:16 | 23.35032 | -33.59763 | 39127 ft | 580 kts | 121° |
| 2026-04-25 16:17 | 23.31351 | -33.51936 | 39134 ft | 580 kts | 121° |
| 2026-04-25 16:17 | 23.27688 | -33.44162 | 39141 ft | 580 kts | 121° |
| 2026-04-25 16:18 | 23.24004 | -33.36356 | 39131 ft | 580 kts | 121° |
| 2026-04-25 16:18 | 23.20315 | -33.28551 | 39131 ft | 580 kts | 121° |
| 2026-04-25 16:19 | 23.16627 | -33.20762 | 39125 ft | 579 kts | 121° |
| 2026-04-25 16:19 | 23.13659 | -33.14501 | 39145 ft | 579 kts | 121° |
| 2026-04-25 16:20 | 23.08110 | -33.02819 | 39142 ft | 579 kts | 121° |
| 2026-04-25 16:21 | 23.02562 | -32.91165 | 39122 ft | 579 kts | 121° |
| 2026-04-25 16:21 | 22.98861 | -32.83408 | 39132 ft | 579 kts | 121° |
| 2026-04-25 16:22 | 22.95158 | -32.75657 | 39131 ft | 578 kts | 121° |
| 2026-04-25 16:22 | 22.91446 | -32.67900 | 39130 ft | 578 kts | 121° |
| 2026-04-25 16:23 | 22.87759 | -32.60206 | 39136 ft | 578 kts | 121° |
| 2026-04-25 16:23 | 22.84041 | -32.52461 | 39114 ft | 578 kts | 121° |
| 2026-04-25 16:24 | 22.80322 | -32.44724 | 39124 ft | 578 kts | 121° |
| 2026-04-25 16:24 | 22.77318 | -32.38486 | 39128 ft | 578 kts | 121° |
| 2026-04-25 16:25 | 22.73622 | -32.30818 | 39136 ft | 578 kts | 121° |
| 2026-04-25 16:25 | 22.69895 | -32.23100 | 39130 ft | 578 kts | 121° |
| 2026-04-25 16:26 | 22.66160 | -32.15378 | 39104 ft | 578 kts | 121° |
| 2026-04-25 16:26 | 22.62431 | -32.07678 | 39125 ft | 577 kts | 121° |
| 2026-04-25 16:27 | 22.58702 | -31.99991 | 39126 ft | 577 kts | 121° |
| 2026-04-25 16:27 | 22.54963 | -31.92294 | 39129 ft | 577 kts | 121° |
| 2026-04-25 16:28 | 22.51249 | -31.84660 | 39125 ft | 577 kts | 121° |
| 2026-04-25 16:28 | 22.47505 | -31.76977 | 39108 ft | 577 kts | 121° |
| 2026-04-25 16:29 | 22.43757 | -31.69297 | 39123 ft | 577 kts | 121° |
| 2026-04-25 16:29 | 22.40926 | -31.63504 | 39122 ft | 577 kts | 121° |
| 2026-04-25 16:30 | 22.37596 | -31.56697 | 39124 ft | 577 kts | 121° |
| 2026-04-25 16:30 | 22.33838 | -31.49028 | 39125 ft | 577 kts | 121° |
| 2026-04-25 16:31 | 22.30107 | -31.41424 | 39118 ft | 574 kts | 121° |
| 2026-04-25 16:31 | 22.26372 | -31.33820 | 39118 ft | 571 kts | 121° |
| 2026-04-25 16:32 | 22.22640 | -31.26239 | 39120 ft | 572 kts | 121° |
| 2026-04-25 16:32 | 22.18897 | -31.18646 | 39125 ft | 572 kts | 121° |
| 2026-04-25 16:33 | 22.15175 | -31.11107 | 39122 ft | 573 kts | 121° |
| 2026-04-25 16:33 | 22.11423 | -31.03516 | 39120 ft | 573 kts | 121° |
| 2026-04-25 16:34 | 22.07664 | -30.95923 | 39109 ft | 573 kts | 121° |
| 2026-04-25 16:34 | 22.04256 | -30.89047 | 39120 ft | 573 kts | 121° |
| 2026-04-25 16:35 | 22.00852 | -30.82191 | 39120 ft | 573 kts | 121° |
| 2026-04-25 16:35 | 21.97087 | -30.74616 | 39116 ft | 573 kts | 121° |
| 2026-04-25 16:36 | 21.93339 | -30.67088 | 39115 ft | 573 kts | 121° |
| 2026-04-25 16:36 | 21.89560 | -30.59506 | 39116 ft | 573 kts | 121° |
| 2026-04-25 16:37 | 21.85779 | -30.51932 | 39108 ft | 573 kts | 121° |
| 2026-04-25 16:37 | 21.82004 | -30.44382 | 39115 ft | 573 kts | 121° |
| 2026-04-25 16:38 | 21.78246 | -30.36876 | 39120 ft | 573 kts | 121° |
| 2026-04-25 16:38 | 21.74459 | -30.29323 | 39113 ft | 573 kts | 121° |
| 2026-04-25 16:39 | 21.70668 | -30.21773 | 39113 ft | 573 kts | 121° |
| 2026-04-25 16:39 | 21.67301 | -30.15076 | 39115 ft | 573 kts | 121° |
| 2026-04-25 16:40 | 21.63788 | -30.08097 | 39114 ft | 574 kts | 121° |
| 2026-04-25 16:40 | 21.59989 | -30.00562 | 39114 ft | 574 kts | 121° |
| 2026-04-25 16:41 | 21.56175 | -29.93006 | 39112 ft | 574 kts | 121° |
| 2026-04-25 16:41 | 21.50457 | -29.81701 | 39116 ft | 574 kts | 122° |
| 2026-04-25 16:42 | 21.46148 | -29.74529 | 39113 ft | 570 kts | 129° |
| 2026-04-25 16:42 | 21.41542 | -29.67666 | 39101 ft | 570 kts | 129° |
| 2026-04-25 16:43 | 21.36904 | -29.60763 | 39116 ft | 570 kts | 129° |
| 2026-04-25 16:43 | 21.32303 | -29.53837 | 39119 ft | 570 kts | 128° |
| 2026-04-25 16:44 | 21.27705 | -29.46885 | 39103 ft | 571 kts | 128° |
| 2026-04-25 16:44 | 21.24015 | -29.41308 | 39104 ft | 570 kts | 128° |
| 2026-04-25 16:45 | 21.19423 | -29.34383 | 39107 ft | 570 kts | 128° |
| 2026-04-25 16:45 | 21.14852 | -29.27505 | 39104 ft | 570 kts | 128° |
| 2026-04-25 16:46 | 21.10251 | -29.20591 | 39105 ft | 570 kts | 128° |
| 2026-04-25 16:46 | 21.06392 | -29.14798 | 39104 ft | 570 kts | 128° |
| 2026-04-25 16:47 | 21.01044 | -29.06778 | 39086 ft | 569 kts | 128° |
| 2026-04-25 16:47 | 20.96440 | -28.99883 | 39094 ft | 569 kts | 128° |
| 2026-04-25 16:48 | 20.91832 | -28.92991 | 39103 ft | 569 kts | 128° |
| 2026-04-25 16:48 | 20.87241 | -28.86134 | 38988 ft | 564 kts | 128° |
| 2026-04-25 16:49 | 20.82680 | -28.79325 | 39089 ft | 563 kts | 128° |
| 2026-04-25 16:49 | 20.79551 | -28.74661 | 39085 ft | 563 kts | 128° |
| 2026-04-25 16:50 | 20.74984 | -28.67862 | 39097 ft | 563 kts | 128° |
| 2026-04-25 16:50 | 20.70439 | -28.61102 | 39096 ft | 564 kts | 128° |
| 2026-04-25 16:51 | 20.65859 | -28.54298 | 39091 ft | 565 kts | 128° |
| 2026-04-25 16:51 | 20.62010 | -28.48586 | 39092 ft | 565 kts | 128° |
| 2026-04-25 16:52 | 20.56671 | -28.40673 | 39076 ft | 565 kts | 128° |
| 2026-04-25 16:52 | 20.52066 | -28.33855 | 39096 ft | 565 kts | 128° |
| 2026-04-25 16:53 | 20.45158 | -28.23644 | 39091 ft | 565 kts | 128° |
| 2026-04-25 16:54 | 20.40554 | -28.16848 | 39089 ft | 566 kts | 129° |
| 2026-04-25 16:54 | 20.36728 | -28.11207 | 39077 ft | 566 kts | 129° |
| 2026-04-25 16:55 | 20.32787 | -28.05403 | 39082 ft | 566 kts | 128° |
| 2026-04-25 16:55 | 20.28173 | -27.98614 | 39085 ft | 565 kts | 128° |
| 2026-04-25 16:56 | 20.23556 | -27.91828 | 39087 ft | 565 kts | 128° |
| 2026-04-25 16:56 | 20.18962 | -27.85084 | 39075 ft | 566 kts | 128° |
| 2026-04-25 16:57 | 20.14336 | -27.78300 | 39074 ft | 566 kts | 128° |
| 2026-04-25 16:57 | 20.09713 | -27.71530 | 39045 ft | 566 kts | 128° |
| 2026-04-25 16:58 | 20.05083 | -27.64757 | 39072 ft | 565 kts | 128° |
| 2026-04-25 16:58 | 20.00478 | -27.58028 | 39074 ft | 564 kts | 128° |
| 2026-04-25 16:59 | 19.95853 | -27.51277 | 39074 ft | 564 kts | 128° |
| 2026-04-25 16:59 | 19.92085 | -27.45783 | 39076 ft | 564 kts | 128° |
| 2026-04-25 17:00 | 19.88078 | -27.39947 | 39066 ft | 564 kts | 128° |
| 2026-04-25 17:00 | 19.83451 | -27.33213 | 39068 ft | 563 kts | 128° |
| 2026-04-25 17:01 | 19.78826 | -27.26490 | 39072 ft | 562 kts | 128° |
| 2026-04-25 17:01 | 19.74208 | -27.19786 | 39070 ft | 562 kts | 128° |
| 2026-04-25 17:02 | 19.69623 | -27.13137 | 39070 ft | 562 kts | 128° |
| 2026-04-25 17:02 | 19.65007 | -27.06449 | 39070 ft | 562 kts | 128° |
| 2026-04-25 17:03 | 19.60384 | -26.99760 | 39051 ft | 561 kts | 128° |
| 2026-04-25 17:03 | 19.55770 | -26.93090 | 39066 ft | 560 kts | 128° |
| 2026-04-25 17:04 | 19.51158 | -26.86431 | 39072 ft | 559 kts | 128° |
| 2026-04-25 17:04 | 19.47469 | -26.81110 | 39064 ft | 559 kts | 128° |
| 2026-04-25 17:05 | 19.43438 | -26.75302 | 39062 ft | 559 kts | 128° |
| 2026-04-25 17:05 | 19.36524 | -26.65350 | 39063 ft | 558 kts | 128° |
| 2026-04-25 17:06 | 19.31921 | -26.58734 | 39062 ft | 559 kts | 128° |
| 2026-04-25 17:06 | 19.27302 | -26.52102 | 39059 ft | 559 kts | 129° |
| 2026-04-25 17:07 | 19.22678 | -26.45471 | 39062 ft | 559 kts | 129° |
| 2026-04-25 17:07 | 19.18051 | -26.38842 | 39058 ft | 560 kts | 129° |
| 2026-04-25 17:08 | 19.13452 | -26.32259 | 39063 ft | 560 kts | 129° |
| 2026-04-25 17:08 | 19.08830 | -26.25652 | 38923 ft | 554 kts | 128° |
| 2026-04-25 17:09 | 19.04260 | -26.19122 | 39041 ft | 551 kts | 129° |
| 2026-04-25 17:09 | 19.01149 | -26.14684 | 39039 ft | 552 kts | 129° |
| 2026-04-25 17:10 | 18.96594 | -26.08188 | 39052 ft | 553 kts | 129° |
| 2026-04-25 17:10 | 18.92020 | -26.01645 | 39054 ft | 554 kts | 128° |
| 2026-04-25 17:11 | 18.87463 | -25.95060 | 39049 ft | 555 kts | 128° |
| 2026-04-25 17:11 | 18.82905 | -25.88470 | 39043 ft | 555 kts | 128° |
| 2026-04-25 17:12 | 18.78369 | -25.81930 | 39043 ft | 555 kts | 128° |
| 2026-04-25 17:12 | 18.73795 | -25.75348 | 39041 ft | 556 kts | 128° |
| 2026-04-25 17:13 | 18.70737 | -25.70953 | 39039 ft | 556 kts | 128° |
| 2026-04-25 17:13 | 18.64626 | -25.62177 | 39044 ft | 557 kts | 129° |
| 2026-04-25 17:14 | 18.60059 | -25.55625 | 39027 ft | 557 kts | 129° |
| 2026-04-25 17:14 | 18.56909 | -25.51111 | 39032 ft | 557 kts | 129° |
| 2026-04-25 17:15 | 18.52322 | -25.44542 | 39038 ft | 556 kts | 129° |
| 2026-04-25 17:15 | 18.47731 | -25.37973 | 39033 ft | 556 kts | 129° |
| 2026-04-25 17:16 | 18.43136 | -25.31408 | 39034 ft | 556 kts | 129° |
| 2026-04-25 17:16 | 18.38541 | -25.24848 | 39028 ft | 556 kts | 129° |
| 2026-04-25 17:17 | 18.34724 | -25.19403 | 39013 ft | 556 kts | 129° |
| 2026-04-25 17:17 | 18.29391 | -25.11805 | 39024 ft | 554 kts | 129° |
| 2026-04-25 17:18 | 18.25552 | -25.06340 | 39025 ft | 554 kts | 129° |
| 2026-04-25 17:18 | 18.21000 | -24.99866 | 39069 ft | 553 kts | 130° |
| 2026-04-25 17:19 | 18.16424 | -24.93365 | 39031 ft | 553 kts | 130° |
| 2026-04-25 17:19 | 18.13343 | -24.88993 | 39027 ft | 552 kts | 130° |
| 2026-04-25 17:20 | 18.08772 | -24.82510 | 39003 ft | 551 kts | 130° |
| 2026-04-25 17:20 | 18.04216 | -24.76053 | 39008 ft | 549 kts | 130° |
| 2026-04-25 17:21 | 17.99691 | -24.69648 | 39021 ft | 548 kts | 130° |
| 2026-04-25 17:21 | 17.95142 | -24.63216 | 39015 ft | 547 kts | 130° |
| 2026-04-25 17:22 | 17.91365 | -24.57880 | 39016 ft | 547 kts | 130° |
| 2026-04-25 17:22 | 17.86048 | -24.50375 | 39014 ft | 547 kts | 130° |
| 2026-04-25 17:23 | 17.81562 | -24.44049 | 39003 ft | 547 kts | 130° |
| 2026-04-25 17:23 | 17.76985 | -24.37600 | 39019 ft | 547 kts | 130° |
| 2026-04-25 17:24 | 17.72429 | -24.31187 | 39015 ft | 547 kts | 130° |
| 2026-04-25 17:24 | 17.68739 | -24.26022 | 39012 ft | 547 kts | 130° |
| 2026-04-25 17:25 | 17.64174 | -24.19686 | 39006 ft | 548 kts | 130° |
| 2026-04-25 17:25 | 17.59571 | -24.13306 | 39005 ft | 548 kts | 130° |
| 2026-04-25 17:26 | 17.54965 | -24.06918 | 38994 ft | 548 kts | 130° |
| 2026-04-25 17:26 | 17.50377 | -24.00555 | 39006 ft | 547 kts | 130° |
| 2026-04-25 17:27 | 17.45818 | -23.94239 | 38999 ft | 547 kts | 130° |
| 2026-04-25 17:27 | 17.41973 | -23.88918 | 38995 ft | 546 kts | 130° |
| 2026-04-25 17:28 | 17.36638 | -23.81540 | 38994 ft | 546 kts | 130° |
| 2026-04-25 17:28 | 17.32057 | -23.75212 | 38994 ft | 545 kts | 130° |
| 2026-04-25 17:29 | 17.27478 | -23.68893 | 38991 ft | 545 kts | 130° |
| 2026-04-25 17:29 | 17.24389 | -23.64634 | 38995 ft | 544 kts | 130° |
| 2026-04-25 17:30 | 17.19816 | -23.58332 | 38988 ft | 543 kts | 130° |
| 2026-04-25 17:30 | 17.15245 | -23.52040 | 38991 ft | 542 kts | 130° |
| 2026-04-25 17:31 | 17.10708 | -23.45798 | 38989 ft | 542 kts | 130° |
| 2026-04-25 17:31 | 17.06145 | -23.39528 | 38994 ft | 541 kts | 131° |
| 2026-04-25 17:32 | 17.01585 | -23.33268 | 38980 ft | 541 kts | 131° |
| 2026-04-25 17:32 | 16.97020 | -23.27006 | 38976 ft | 540 kts | 130° |
| 2026-04-25 17:33 | 16.92468 | -23.20767 | 38981 ft | 540 kts | 130° |
| 2026-04-25 17:33 | 16.87899 | -23.14511 | 38981 ft | 540 kts | 130° |
| 2026-04-25 17:34 | 16.83371 | -23.08316 | 38952 ft | 540 kts | 130° |
| 2026-04-25 17:34 | 16.79746 | -23.03359 | 38945 ft | 540 kts | 130° |
| 2026-04-25 17:35 | 16.75318 | -22.97034 | 38940 ft | 543 kts | 124° |
| 2026-04-25 17:35 | 16.71822 | -22.90027 | 38940 ft | 547 kts | 114° |
| 2026-04-25 17:36 | 16.69221 | -22.82550 | 38951 ft | 548 kts | 111° |
| 2026-04-25 17:36 | 16.66688 | -22.75044 | 38957 ft | 549 kts | 111° |
| 2026-04-25 17:37 | 16.64106 | -22.67544 | 38956 ft | 549 kts | 112° |
| 2026-04-25 17:37 | 16.61487 | -22.60047 | 38962 ft | 549 kts | 112° |
| 2026-04-25 17:38 | 16.59306 | -22.53828 | 38960 ft | 550 kts | 112° |
| 2026-04-25 17:38 | 16.56254 | -22.45122 | 38965 ft | 550 kts | 112° |
| 2026-04-25 17:39 | 16.53628 | -22.37631 | 38958 ft | 550 kts | 112° |
| 2026-04-25 17:39 | 16.52699 | -22.34985 | 40294 ft | 550 kts | 111° |
| 2026-04-25 17:39 | 16.51508 | -22.31594 | 38861 ft | 548 kts | 112° |
| 2026-04-25 17:40 | 16.48898 | -22.24164 | 38944 ft | 545 kts | 112° |
| 2026-04-25 17:40 | 16.46285 | -22.16739 | 38980 ft | 545 kts | 112° |
| 2026-04-25 17:41 | 16.43665 | -22.09302 | 38958 ft | 547 kts | 112° |
| 2026-04-25 17:41 | 16.41041 | -22.01864 | 38956 ft | 547 kts | 112° |
| 2026-04-25 17:42 | 16.38425 | -21.94459 | 38949 ft | 548 kts | 112° |
| 2026-04-25 17:42 | 16.35789 | -21.87006 | 38950 ft | 548 kts | 112° |
| 2026-04-25 17:43 | 16.33150 | -21.79551 | 38937 ft | 549 kts | 112° |
| 2026-04-25 17:43 | 16.30502 | -21.72081 | 38933 ft | 549 kts | 112° |
| 2026-04-25 17:44 | 16.27854 | -21.64626 | 38931 ft | 549 kts | 112° |
| 2026-04-25 17:44 | 16.26972 | -21.62163 | 40311 ft | 549 kts | 111° |
| 2026-04-25 17:44 | 16.26075 | -21.59667 | 38848 ft | 545 kts | 112° |
| 2026-04-25 17:45 | 16.24304 | -21.54743 | 38895 ft | 542 kts | 112° |
| 2026-04-25 17:45 | 16.20779 | -21.44955 | 38928 ft | 543 kts | 112° |
| 2026-04-25 17:46 | 16.18124 | -21.37585 | 38921 ft | 544 kts | 112° |
| 2026-04-25 17:46 | 16.15456 | -21.30183 | 38923 ft | 545 kts | 112° |
| 2026-04-25 17:47 | 16.12805 | -21.22837 | 38929 ft | 546 kts | 112° |
| 2026-04-25 17:47 | 16.10123 | -21.15416 | 38920 ft | 547 kts | 112° |
| 2026-04-25 17:48 | 16.06100 | -21.04300 | 38902 ft | 547 kts | 112° |
| 2026-04-25 17:49 | 16.03428 | -20.96926 | 38898 ft | 543 kts | 112° |
| 2026-04-25 17:49 | 16.01258 | -20.90947 | 38901 ft | 544 kts | 112° |
| 2026-04-25 17:50 | 15.98624 | -20.83697 | 38900 ft | 545 kts | 112° |
| 2026-04-25 17:50 | 15.95925 | -20.76276 | 38928 ft | 545 kts | 112° |
| 2026-04-25 17:51 | 15.93254 | -20.68940 | 38909 ft | 546 kts | 112° |
| 2026-04-25 17:51 | 15.90559 | -20.61548 | 38914 ft | 547 kts | 112° |
| 2026-04-25 17:52 | 15.87862 | -20.54158 | 38912 ft | 547 kts | 112° |
| 2026-04-25 17:52 | 15.85163 | -20.46773 | 38914 ft | 547 kts | 112° |
| 2026-04-25 17:53 | 15.82464 | -20.39393 | 38910 ft | 546 kts | 112° |
| 2026-04-25 17:53 | 15.79782 | -20.32071 | 38903 ft | 546 kts | 112° |
| 2026-04-25 17:54 | 15.77075 | -20.24689 | 38900 ft | 546 kts | 112° |
| 2026-04-25 17:54 | 15.74921 | -20.18821 | 38907 ft | 546 kts | 112° |
| 2026-04-25 17:55 | 15.72546 | -20.12358 | 38908 ft | 545 kts | 112° |
| 2026-04-25 17:55 | 15.69841 | -20.05003 | 38903 ft | 544 kts | 112° |
| 2026-04-25 17:56 | 15.67148 | -19.97669 | 38901 ft | 543 kts | 112° |
| 2026-04-25 17:56 | 15.64523 | -19.90325 | 38826 ft | 541 kts | 111° |
| 2026-04-25 17:57 | 15.61933 | -19.83021 | 38876 ft | 538 kts | 111° |
| 2026-04-25 17:57 | 15.59351 | -19.75778 | 38903 ft | 539 kts | 111° |
| 2026-04-25 17:58 | 15.56736 | -19.68474 | 38899 ft | 540 kts | 112° |
| 2026-04-25 17:58 | 15.54115 | -19.61164 | 38901 ft | 541 kts | 112° |
| 2026-04-25 17:59 | 15.51486 | -19.53836 | 38900 ft | 542 kts | 112° |
| 2026-04-25 17:59 | 15.49390 | -19.47997 | 38897 ft | 543 kts | 112° |
| 2026-04-25 18:00 | 15.47099 | -19.41622 | 38888 ft | 543 kts | 112° |
| 2026-04-25 18:00 | 15.44100 | -19.34447 | 38899 ft | 541 kts | 118° |
| 2026-04-25 18:01 | 15.40629 | -19.27527 | 38887 ft | 541 kts | 119° |
| 2026-04-25 18:01 | 15.37160 | -19.20658 | 38888 ft | 540 kts | 118° |
| 2026-04-25 18:02 | 15.33763 | -19.13722 | 38872 ft | 539 kts | 118° |
| 2026-04-25 18:02 | 15.30405 | -19.06759 | 38886 ft | 539 kts | 118° |
| 2026-04-25 18:03 | 15.27064 | -18.99827 | 38890 ft | 538 kts | 118° |
| 2026-04-25 18:03 | 15.23722 | -18.92918 | 38675 ft | 532 kts | 118° |
| 2026-04-25 18:03 | 15.22069 | -18.89505 | 38103 ft | 528 kts | 118° |
| 2026-04-25 18:04 | 15.20425 | -18.86114 | 37400 ft | 526 kts | 118° |
| 2026-04-25 18:04 | 15.18784 | -18.82734 | 36713 ft | 525 kts | 117° |
| 2026-04-25 18:04 | 15.17777 | -18.80660 | 36325 ft | 523 kts | 117° |
| 2026-04-25 18:04 | 15.16148 | -18.77309 | 35829 ft | 519 kts | 117° |
| 2026-04-25 18:05 | 15.15078 | -18.75106 | 35540 ft | 515 kts | 117° |
| 2026-04-25 18:05 | 15.13480 | -18.71816 | 35082 ft | 510 kts | 117° |
| 2026-04-25 18:05 | 15.11890 | -18.68545 | 34624 ft | 507 kts | 117° |
| 2026-04-25 18:05 | 15.10308 | -18.65293 | 34111 ft | 504 kts | 116° |
| 2026-04-25 18:06 | 15.08225 | -18.61012 | 33418 ft | 501 kts | 116° |
| 2026-04-25 18:06 | 15.06660 | -18.57796 | 32918 ft | 498 kts | 116° |
| 2026-04-25 18:06 | 15.05611 | -18.55643 | 32604 ft | 495 kts | 116° |
| 2026-04-25 18:06 | 15.04064 | -18.52466 | 32148 ft | 491 kts | 116° |
| 2026-04-25 18:07 | 15.02553 | -18.49366 | 31706 ft | 487 kts | 116° |
| 2026-04-25 18:07 | 15.01027 | -18.46238 | 31256 ft | 484 kts | 116° |
| 2026-04-25 18:07 | 14.99517 | -18.43141 | 30796 ft | 481 kts | 116° |
| 2026-04-25 18:07 | 14.98013 | -18.40060 | 30352 ft | 478 kts | 116° |
| 2026-04-25 18:08 | 14.96519 | -18.36999 | 29906 ft | 475 kts | 116° |
| 2026-04-25 18:08 | 14.95034 | -18.33957 | 29417 ft | 472 kts | 116° |
| 2026-04-25 18:08 | 14.93559 | -18.30937 | 30252 ft | 467 kts | 117° |
| 2026-04-25 18:08 | 14.92106 | -18.27962 | 28530 ft | 462 kts | 116° |
| 2026-04-25 18:09 | 14.90667 | -18.25021 | 27831 ft | 456 kts | 116° |
| 2026-04-25 18:09 | 14.89249 | -18.22122 | 27114 ft | 446 kts | 116° |
| 2026-04-25 18:09 | 14.88111 | -18.19798 | 26202 ft | 443 kts | 116° |
| 2026-04-25 18:09 | 14.87828 | -18.19218 | 25948 ft | 443 kts | 116° |
| 2026-04-25 18:10 | 14.85948 | -18.15375 | 24278 ft | 463 kts | 116° |
| 2026-04-25 18:10 | 14.84482 | -18.12382 | 23581 ft | 468 kts | 116° |
| 2026-04-25 18:10 | 14.83010 | -18.09376 | 22924 ft | 468 kts | 116° |
| 2026-04-25 18:10 | 14.81540 | -18.06377 | 22363 ft | 465 kts | 117° |
| 2026-04-25 18:11 | 14.80087 | -18.03413 | 21883 ft | 461 kts | 117° |
| 2026-04-25 18:11 | 14.78643 | -18.00469 | 21371 ft | 457 kts | 117° |
| 2026-04-25 18:11 | 14.77207 | -17.97543 | 20842 ft | 455 kts | 117° |
| 2026-04-25 18:11 | 14.75781 | -17.94638 | 20370 ft | 452 kts | 117° |
| 2026-04-25 18:12 | 14.74367 | -17.91759 | 19905 ft | 448 kts | 117° |
| 2026-04-25 18:12 | 14.72958 | -17.88893 | 19459 ft | 445 kts | 117° |
| 2026-04-25 18:12 | 14.71578 | -17.86084 | 18983 ft | 443 kts | 118° |
| 2026-04-25 18:12 | 14.70168 | -17.83216 | 18518 ft | 441 kts | 118° |
| 2026-04-25 18:13 | 14.68786 | -17.80405 | 18049 ft | 438 kts | 118° |
| 2026-04-25 18:13 | 14.67404 | -17.77596 | 17541 ft | 435 kts | 118° |
| 2026-04-25 18:13 | 14.66056 | -17.74859 | 17129 ft | 431 kts | 118° |
| 2026-04-25 18:14 | 14.63367 | -17.69398 | 16299 ft | 423 kts | 118° |
| 2026-04-25 18:14 | 14.62051 | -17.66727 | 16176 ft | 411 kts | 118° |
| 2026-04-25 18:14 | 14.61042 | -17.64677 | 16100 ft | 402 kts | 118° |
| 2026-04-25 18:14 | 14.60320 | -17.63213 | 15874 ft | 400 kts | 118° |
| 2026-04-25 18:15 | 14.59063 | -17.60664 | 15441 ft | 399 kts | 119° |
| 2026-04-25 18:15 | 14.57835 | -17.58171 | 15319 ft | 374 kts | 119° |
| 2026-04-25 18:15 | 14.56694 | -17.55853 | 15093 ft | 350 kts | 119° |
| 2026-04-25 18:15 | 14.55617 | -17.53668 | 14710 ft | 334 kts | 119° |
| 2026-04-25 18:16 | 14.54577 | -17.51563 | 14224 ft | 329 kts | 120° |
| 2026-04-25 18:16 | 14.53541 | -17.49471 | 13954 ft | 328 kts | 120° |
| 2026-04-25 18:16 | 14.51514 | -17.45370 | 13126 ft | 313 kts | 119° |
| 2026-04-25 18:17 | 14.50525 | -17.43371 | 12389 ft | 312 kts | 120° |
| 2026-04-25 18:17 | 14.49548 | -17.41397 | 11755 ft | 306 kts | 119° |
| 2026-04-25 18:17 | 14.48590 | -17.39460 | 11303 ft | 296 kts | 120° |
| 2026-04-25 18:17 | 14.47669 | -17.37597 | 10868 ft | 286 kts | 120° |
| 2026-04-25 18:18 | 14.46779 | -17.35797 | 10428 ft | 277 kts | 119° |
| 2026-04-25 18:18 | 14.45913 | -17.34047 | 9949 ft | 272 kts | 118° |
| 2026-04-25 18:18 | 14.45056 | -17.32319 | 9377 ft | 269 kts | 118° |
| 2026-04-25 18:18 | 14.44202 | -17.30596 | 8755 ft | 272 kts | 117° |
| 2026-04-25 18:19 | 14.43342 | -17.28860 | 8611 ft | 265 kts | 117° |
| 2026-04-25 18:19 | 14.42506 | -17.27176 | 8253 ft | 271 kts | 117° |
| 2026-04-25 18:19 | 14.41647 | -17.25445 | 7973 ft | 272 kts | 117° |
| 2026-04-25 18:19 | 14.40782 | -17.23698 | 7658 ft | 274 kts | 117° |
| 2026-04-25 18:20 | 14.39911 | -17.21940 | 7357 ft | 276 kts | 116° |
| 2026-04-25 18:20 | 14.39037 | -17.20175 | 7042 ft | 277 kts | 116° |
| 2026-04-25 18:20 | 14.38169 | -17.18423 | 6866 ft | 269 kts | 116° |
| 2026-04-25 18:20 | 14.37578 | -17.16648 | 6605 ft | 258 kts | 90° |
| 2026-04-25 18:21 | 14.37629 | -17.14832 | 6347 ft | 252 kts | 85° |
| 2026-04-25 18:21 | 14.37664 | -17.13008 | 6061 ft | 256 kts | 86° |
| 2026-04-25 18:21 | 14.37678 | -17.11163 | 5782 ft | 257 kts | 87° |
| 2026-04-25 18:21 | 14.37866 | -17.09368 | 5468 ft | 246 kts | 67° |
| 2026-04-25 18:22 | 14.38803 | -17.07984 | 5131 ft | 230 kts | 33° |
| 2026-04-25 18:22 | 14.39256 | -17.07695 | 5057 ft | 223 kts | 22° |
| 2026-04-25 18:22 | 14.41634 | -17.07259 | 4672 ft | 201 kts | 3° |
| 2026-04-25 18:22 | 14.43001 | -17.07189 | 4415 ft | 192 kts | 0° |
| 2026-04-25 18:23 | 14.44314 | -17.07173 | 4159 ft | 185 kts | 359° |
| 2026-04-25 18:23 | 14.45571 | -17.07173 | 3931 ft | 177 kts | 359° |
| 2026-04-25 18:23 | 14.46792 | -17.07176 | 3722 ft | 176 kts | 358° |
| 2026-04-25 18:23 | 14.48025 | -17.07181 | 3533 ft | 180 kts | 359° |
| 2026-04-25 18:24 | 14.49271 | -17.07185 | 3323 ft | 182 kts | 359° |
| 2026-04-25 18:24 | 14.50546 | -17.07192 | 3072 ft | 183 kts | 360° |
| 2026-04-25 18:24 | 14.51812 | -17.07199 | 2822 ft | 183 kts | 358° |
| 2026-04-25 18:24 | 14.53050 | -17.07205 | 2623 ft | 172 kts | 358° |
| 2026-04-25 18:25 | 14.54213 | -17.07213 | 2401 ft | 161 kts | 360° |
| 2026-04-25 18:25 | 14.55291 | -17.07219 | 2174 ft | 150 kts | 359° |
| 2026-04-25 18:25 | 14.56348 | -17.07223 | 2007 ft | 152 kts | 0° |
| 2026-04-25 18:25 | 14.57416 | -17.07226 | 1794 ft | 154 kts | 359° |
| 2026-04-25 18:26 | 14.58473 | -17.07232 | 1628 ft | 152 kts | 359° |
| 2026-04-25 18:26 | 14.59523 | -17.07240 | 1432 ft | 149 kts | 1° |
| 2026-04-25 18:26 | 14.60560 | -17.07239 | 1244 ft | 141 kts | 0° |
| 2026-04-25 18:26 | 14.61544 | -17.07216 | 1049 ft | 147 kts | 1° |
| 2026-04-25 18:27 | 14.62589 | -17.07215 | 861 ft | 152 kts | 359° |
| 2026-04-25 18:27 | 14.63616 | -17.07240 | 757 ft | 144 kts | 359° |
| 2026-04-25 18:27 | 14.64619 | -17.07245 | 487 ft | 142 kts | 358° |
| 2026-04-25 18:27 | 14.65613 | -17.07264 | 334 ft | 144 kts | 358° |
| 2026-04-25 18:28 | 14.66607 | -17.07281 | 274 ft | 136 kts | 358° |
| 2026-04-25 18:28 | 14.67433 | -17.07286 | 267 ft | 96 kts | 359° |
| 2026-04-25 18:28 | 14.68059 | -17.07293 | 267 ft | 70 kts | 0° |
| 2026-04-25 18:29 | 14.68567 | -17.07237 | 273 ft | 8 kts | 80° |
| 2026-04-25 18:29 | 14.68571 | -17.07204 | 273 ft | 20 kts | 83° |
| 2026-04-25 18:30 | 14.68388 | -17.07104 | 269 ft | 12 kts | 179° |
| 2026-04-25 18:30 | 14.68305 | -17.07103 | 269 ft | 12 kts | 179° |
| 2026-04-25 18:30 | 14.68223 | -17.07102 | 270 ft | 12 kts | 179° |
| 2026-04-25 18:30 | 14.68139 | -17.07101 | 271 ft | 12 kts | 179° |
| 2026-04-25 18:31 | 14.68043 | -17.07100 | 270 ft | 16 kts | 180° |
| 2026-04-25 18:31 | 14.67903 | -17.07099 | 269 ft | 22 kts | 179° |
| 2026-04-25 18:31 | 14.67781 | -17.07098 | 270 ft | 15 kts | 179° |
| 2026-04-25 18:31 | 14.67676 | -17.07097 | 271 ft | 15 kts | 179° |
| 2026-04-25 18:32 | 14.67567 | -17.07095 | 270 ft | 16 kts | 179° |
| 2026-04-25 18:32 | 14.67446 | -17.07094 | 270 ft | 18 kts | 179° |
| 2026-04-25 18:32 | 14.67319 | -17.07092 | 270 ft | 18 kts | 179° |
| 2026-04-25 18:32 | 14.67192 | -17.07092 | 272 ft | 18 kts | 179° |
| 2026-04-25 18:33 | 14.67065 | -17.07091 | 271 ft | 18 kts | 179° |
| 2026-04-25 18:33 | 14.66934 | -17.07089 | 271 ft | 20 kts | 179° |
| 2026-04-25 18:33 | 14.66796 | -17.07088 | 272 ft | 20 kts | 179° |
| 2026-04-25 18:33 | 14.66657 | -17.07087 | 272 ft | 20 kts | 179° |
| 2026-04-25 18:34 | 14.66515 | -17.07086 | 271 ft | 21 kts | 179° |
| 2026-04-25 18:34 | 14.66363 | -17.07084 | 270 ft | 22 kts | 179° |
| 2026-04-25 18:34 | 14.66208 | -17.07083 | 271 ft | 22 kts | 179° |
| 2026-04-25 18:34 | 14.66053 | -17.07082 | 269 ft | 22 kts | 179° |
| 2026-04-25 18:35 | 14.65898 | -17.07081 | 269 ft | 22 kts | 180° |
| 2026-04-25 18:35 | 14.65743 | -17.07078 | 270 ft | 22 kts | 180° |
| 2026-04-25 18:35 | 14.65628 | -17.07077 | 270 ft | 14 kts | 179° |
| 2026-04-25 18:35 | 14.65546 | -17.07101 | 269 ft | 12 kts | 231° |
| 2026-04-25 18:36 | 14.65535 | -17.07187 | 268 ft | 12 kts | 268° |
| 2026-04-25 18:36 | 14.65530 | -17.07275 | 269 ft | 12 kts | 267° |
| 2026-04-25 18:36 | 14.65527 | -17.07364 | 271 ft | 12 kts | 269° |
| 2026-04-25 18:36 | 14.65526 | -17.07452 | 272 ft | 12 kts | 269° |
| 2026-04-25 18:37 | 14.65525 | -17.07540 | 272 ft | 12 kts | 269° |
| 2026-04-25 18:37 | 14.65545 | -17.07594 | 273 ft | 8 kts | 318° |
| 2026-04-25 18:37 | 14.65569 | -17.07607 | 273 ft | 0 kts | 340° |
| 2026-04-25 18:37 | 14.65572 | -17.07608 | 273 ft | 3 kts | 338° |
| 2026-04-25 18:38 | 14.65587 | -17.07633 | 274 ft | 4 kts | 274° |
| 2026-04-25 18:38 | 14.65586 | -17.07653 | 276 ft | 3 kts | 268° |
| 2026-04-25 18:38 | 14.65585 | -17.07673 | 277 ft | 3 kts | 268° |
| 2026-04-25 18:38 | 14.65584 | -17.07694 | 279 ft | 3 kts | 269° |
| 2026-04-25 18:39 | 14.65584 | -17.07703 | 279 ft | 0 kts | 269° |
| 2026-04-25 18:39 | 14.65584 | -17.07704 | 279 ft | 0 kts | 269° |